Observation data for Sweetwater on 01/18/2019      Previous  Date  Next       Current Mesonet Observations  Soil Data  Daily Summary Page  Observations in Plain Language
KSW1 180600Z 16011KT 10/03 A3006 RMK A01 T01030033  RH  062%=      5-min Rain = 0
KSW1 180601Z 15011KT 10/03 A3006 RMK A01 T01030033  RH  062%=      5-min Rain = 0
KSW1 180602Z 15011KT 10/03 A3006 RMK A01 T01030034  RH  062%=      5-min Rain = 0
KSW1 180603Z 15011KT 10/03 A3006 RMK A01 T01020033  RH  062%=      5-min Rain = 0
KSW1 180604Z 15012KT 10/03 A3006 RMK A01 T01020033  RH  062%=      5-min Rain = 0
KSW1 180605Z 15012KT 10/03 A3006 RMK A01 T01020033  RH  062%=      5-min Rain = 0
KSW1 180606Z 15012KT 10/03 A3006 RMK A01 T01020034  RH  062%=      5-min Rain = 0
KSW1 180607Z 15012KT 10/03 A3006 RMK A01 T01030033  RH  062%=      5-min Rain = 0
KSW1 180608Z 15013KT 10/03 A3006 RMK A01 T01040034  RH  062%=      5-min Rain = 0
KSW1 180609Z 15011KT 10/03 A3006 RMK A01 T01040034  RH  062%=      5-min Rain = 0
KSW1 180610Z 15012KT 10/03 A3006 RMK A01 T01040034  RH  062%=      5-min Rain = 0
KSW1 180611Z 15012KT 10/03 A3006 RMK A01 T01040034  RH  062%=      5-min Rain = 0
KSW1 180612Z 15012KT 10/03 A3006 RMK A01 T01040034  RH  062%=      5-min Rain = 0
KSW1 180613Z 16011KT 10/03 A3006 RMK A01 T01040034  RH  062%=      5-min Rain = 0
KSW1 180614Z 16011KT 11/04 A3006 RMK A01 T01050035  RH  062%=      5-min Rain = 0
KSW1 180615Z 15011KT 11/03 A3006 RMK A01 T01050034  RH  062%=      5-min Rain = 0
KSW1 180616Z 15012KT 10/03 A3006 RMK A01 T01040034  RH  062%=      5-min Rain = 0
KSW1 180617Z 15011KT 10/04 A3006 RMK A01 T01040035  RH  062%=      5-min Rain = 0
KSW1 180618Z 15012KT 10/04 A3006 RMK A01 T01040035  RH  062%=      5-min Rain = 0
KSW1 180619Z 15012KT 10/04 A3006 RMK A01 T01030035  RH  063%=      5-min Rain = 0
KSW1 180620Z 15012KT 10/04 A3006 RMK A01 T01030035  RH  063%=      5-min Rain = 0
KSW1 180621Z 15011KT 10/04 A3006 RMK A01 T01030035  RH  063%=      5-min Rain = 0
KSW1 180622Z 15011KT 10/04 A3006 RMK A01 T01030035  RH  063%=      5-min Rain = 0
KSW1 180623Z 15011KT 10/04 A3006 RMK A01 T01030035  RH  063%=      5-min Rain = 0
KSW1 180624Z 15011KT 10/04 A3006 RMK A01 T01030035  RH  063%=      5-min Rain = 0
KSW1 180625Z 16010KT 10/04 A3006 RMK A01 T01040035  RH  063%=      5-min Rain = 0
KSW1 180626Z 15010KT 10/04 A3006 RMK A01 T01030035  RH  063%=      5-min Rain = 0
KSW1 180627Z 16010KT 10/04 A3006 RMK A01 T01030035  RH  063%=      5-min Rain = 0
KSW1 180628Z 15010KT 10/04 A3006 RMK A01 T01030036  RH  063%=      5-min Rain = 0
KSW1 180629Z 16010KT 10/04 A3006 RMK A01 T01040036  RH  063%=      5-min Rain = 0
KSW1 180630Z 16010KT 10/04 A3006 RMK A01 T01040036  RH  063%=      5-min Rain = 0
KSW1 180631Z 16010KT 10/04 A3006 RMK A01 T01040036  RH  063%=      5-min Rain = 0
KSW1 180632Z 15010KT 10/04 A3006 RMK A01 T01040036  RH  063%=      5-min Rain = 0
KSW1 180633Z 16010KT 10/04 A3006 RMK A01 T01040036  RH  063%=      5-min Rain = 0
KSW1 180634Z 16010KT 10/04 A3006 RMK A01 T01040036  RH  063%=      5-min Rain = 0
KSW1 180635Z 16010KT 10/04 A3006 RMK A01 T01040036  RH  063%=      5-min Rain = 0
KSW1 180636Z 16009KT 10/04 A3006 RMK A01 T01040036  RH  063%=      5-min Rain = 0
KSW1 180637Z 16009KT 10/04 A3006 RMK A01 T01040036  RH  063%=      5-min Rain = 0
KSW1 180638Z 16009KT 10/04 A3006 RMK A01 T01040036  RH  062%=      5-min Rain = 0
KSW1 180639Z 16009KT 11/04 A3005 RMK A01 T01050036  RH  062%=      5-min Rain = 0
KSW1 180640Z 16009KT 11/04 A3005 RMK A01 T01050036  RH  062%=      5-min Rain = 0
KSW1 180641Z 16008KT 11/04 A3005 RMK A01 T01050035  RH  062%=      5-min Rain = 0
KSW1 180642Z 16009KT 11/04 A3005 RMK A01 T01060036  RH  062%=      5-min Rain = 0
KSW1 180643Z 16009KT 11/04 A3005 RMK A01 T01060035  RH  062%=      5-min Rain = 0
KSW1 180644Z 16008KT 11/04 A3005 RMK A01 T01070035  RH  061%=      5-min Rain = 0
KSW1 180645Z 16008KT 11/04 A3005 RMK A01 T01070035  RH  061%=      5-min Rain = 0
KSW1 180646Z 16009KT 11/04 A3005 RMK A01 T01070035  RH  061%=      5-min Rain = 0
KSW1 180647Z 16009KT 11/04 A3005 RMK A01 T01080035  RH  061%=      5-min Rain = 0
KSW1 180648Z 16009KT 11/03 A3005 RMK A01 T01080034  RH  060%=      5-min Rain = 0
KSW1 180649Z 16009KT 11/03 A3005 RMK A01 T01090034  RH  060%=      5-min Rain = 0
KSW1 180650Z 16007KT 11/03 A3005 RMK A01 T01100034  RH  059%=      5-min Rain = 0
KSW1 180651Z 16008KT 11/03 A3005 RMK A01 T01100034  RH  059%=      5-min Rain = 0
KSW1 180652Z 17008KT 11/03 A3005 RMK A01 T01110034  RH  059%=      5-min Rain = 0
KSW1 180653Z 17007KT 11/03 A3005 RMK A01 T01110034  RH  059%=      5-min Rain = 0
KSW1 180654Z 17007KT 11/03 A3005 RMK A01 T01110033  RH  059%=      5-min Rain = 0
KSW1 180655Z 17007KT 11/03 A3005 RMK A01 T01120033  RH  058%=      5-min Rain = 0
KSW1 180656Z 17007KT 11/03 A3005 RMK A01 T01120033  RH  058%=      5-min Rain = 0
KSW1 180657Z 17007KT 11/03 A3005 RMK A01 T01120032  RH  058%=      5-min Rain = 0
KSW1 180658Z 17007KT 11/03 A3005 RMK A01 T01120032  RH  058%=      5-min Rain = 0
KSW1 180659Z 17007KT 11/03 A3005 RMK A01 T01120032  RH  058%=      5-min Rain = 0
KSW1 180700Z 17007KT 11/03 A3005 RMK A01 T01140031  RH  057%=      5-min Rain = 0
KSW1 180701Z 17007KT 12/03 A3005 RMK A01 T01150032  RH  057%=      5-min Rain = 0
KSW1 180702Z 17007KT 12/03 A3005 RMK A01 T01150031  RH  056%=      5-min Rain = 0
KSW1 180703Z 17006KT 12/03 A3005 RMK A01 T01150031  RH  056%=      5-min Rain = 0
KSW1 180704Z 17006KT 12/03 A3005 RMK A01 T01150032  RH  057%=      5-min Rain = 0
KSW1 180705Z 17006KT 12/03 A3005 RMK A01 T01150032  RH  057%=      5-min Rain = 0
KSW1 180706Z 17006KT 11/03 A3005 RMK A01 T01140031  RH  057%=      5-min Rain = 0
KSW1 180707Z 17006KT 11/03 A3004 RMK A01 T01140031  RH  057%=      5-min Rain = 0
KSW1 180708Z 17007KT 11/03 A3004 RMK A01 T01140031  RH  057%=      5-min Rain = 0
KSW1 180709Z 17007KT 11/03 A3004 RMK A01 T01140030  RH  056%=      5-min Rain = 0
KSW1 180710Z 17007KT 11/03 A3004 RMK A01 T01140031  RH  056%=      5-min Rain = 0
KSW1 180711Z 17007KT 11/03 A3004 RMK A01 T01140031  RH  057%=      5-min Rain = 0
KSW1 180712Z 17007KT 11/03 A3004 RMK A01 T01140031  RH  057%=      5-min Rain = 0
KSW1 180713Z 17007KT 11/03 A3004 RMK A01 T01140030  RH  056%=      5-min Rain = 0
KSW1 180714Z 17008KT 12/03 A3004 RMK A01 T01160031  RH  056%=      5-min Rain = 0
KSW1 180715Z 17009KT 12/03 A3004 RMK A01 T01160030  RH  056%=      5-min Rain = 0
KSW1 180716Z 17009KT 12/03 A3004 RMK A01 T01170031  RH  055%=      5-min Rain = 0
KSW1 180717Z 17008KT 12/03 A3004 RMK A01 T01170031  RH  055%=      5-min Rain = 0
KSW1 180718Z 17009KT 12/03 A3004 RMK A01 T01170031  RH  055%=      5-min Rain = 0
KSW1 180719Z 17009KT 12/03 A3004 RMK A01 T01180031  RH  055%=      5-min Rain = 0
KSW1 180720Z 17009KT 12/03 A3004 RMK A01 T01180031  RH  055%=      5-min Rain = 0
KSW1 180721Z 17009KT 12/03 A3004 RMK A01 T01180031  RH  055%=      5-min Rain = 0
KSW1 180722Z 17010KT 12/03 A3004 RMK A01 T01180030  RH  055%=      5-min Rain = 0
KSW1 180723Z 17009KT 12/03 A3004 RMK A01 T01180030  RH  055%=      5-min Rain = 0
KSW1 180724Z 17009KT 12/03 A3003 RMK A01 T01180030  RH  055%=      5-min Rain = 0
KSW1 180725Z 17010KT 12/03 A3003 RMK A01 T01190031  RH  055%=      5-min Rain = 0
KSW1 180726Z 18010KT 12/03 A3003 RMK A01 T01180030  RH  055%=      5-min Rain = 0
KSW1 180727Z 18010KT 12/03 A3003 RMK A01 T01180030  RH  054%=      5-min Rain = 0
KSW1 180728Z 18009KT 12/03 A3003 RMK A01 T01180030  RH  055%=      5-min Rain = 0
KSW1 180729Z 18010KT 12/03 A3003 RMK A01 T01180030  RH  055%=      5-min Rain = 0
KSW1 180730Z 18009KT 12/03 A3003 RMK A01 T01180030  RH  055%=      5-min Rain = 0
KSW1 180731Z 18010KT 12/03 A3003 RMK A01 T01180029  RH  055%=      5-min Rain = 0
KSW1 180732Z 18010KT 12/03 A3003 RMK A01 T01180030  RH  054%=      5-min Rain = 0
KSW1 180733Z 18010KT 12/03 A3003 RMK A01 T01180030  RH  055%=      5-min Rain = 0
KSW1 180734Z 18010KT 12/03 A3003 RMK A01 T01180030  RH  055%=      5-min Rain = 0
KSW1 180735Z 18010KT 12/03 A3003 RMK A01 T01180029  RH  054%=      5-min Rain = 0
KSW1 180736Z 18011KT 12/03 A3003 RMK A01 T01180029  RH  054%=      5-min Rain = 0
KSW1 180737Z 17011KT 12/03 A3003 RMK A01 T01190030  RH  054%=      5-min Rain = 0
KSW1 180738Z 18010KT 12/03 A3003 RMK A01 T01180029  RH  054%=      5-min Rain = 0
KSW1 180739Z 17010KT 12/03 A3002 RMK A01 T01190029  RH  054%=      5-min Rain = 0
KSW1 180740Z 17011KT 12/03 A3002 RMK A01 T01190029  RH  054%=      5-min Rain = 0
KSW1 180741Z 17011KT 12/03 A3002 RMK A01 T01180029  RH  054%=      5-min Rain = 0
KSW1 180742Z 17010KT 12/03 A3002 RMK A01 T01180029  RH  055%=      5-min Rain = 0
KSW1 180743Z 18010KT 12/03 A3002 RMK A01 T01170029  RH  055%=      5-min Rain = 0
KSW1 180744Z 18010KT 12/03 A3002 RMK A01 T01170029  RH  055%=      5-min Rain = 0
KSW1 180745Z 18011KT 12/03 A3002 RMK A01 T01160029  RH  055%=      5-min Rain = 0
KSW1 180746Z 18010KT 12/03 A3002 RMK A01 T01170029  RH  055%=      5-min Rain = 0
KSW1 180747Z 17010KT 12/03 A3002 RMK A01 T01170029  RH  055%=      5-min Rain = 0
KSW1 180748Z 17011KT 12/03 A3002 RMK A01 T01160029  RH  055%=      5-min Rain = 0
KSW1 180749Z 17010KT 12/03 A3002 RMK A01 T01160029  RH  055%=      5-min Rain = 0
KSW1 180750Z 17010KT 12/03 A3002 RMK A01 T01150029  RH  055%=      5-min Rain = 0
KSW1 180751Z 17010KT 12/03 A3002 RMK A01 T01150029  RH  055%=      5-min Rain = 0
KSW1 180752Z 17010KT 12/03 A3002 RMK A01 T01150029  RH  055%=      5-min Rain = 0
KSW1 180753Z 17010KT 12/03 A3002 RMK A01 T01150028  RH  055%=      5-min Rain = 0
KSW1 180754Z 17010KT 12/03 A3002 RMK A01 T01150028  RH  055%=      5-min Rain = 0
KSW1 180755Z 17010KT 12/03 A3002 RMK A01 T01150028  RH  055%=      5-min Rain = 0
KSW1 180756Z 17010KT 12/03 A3002 RMK A01 T01150028  RH  055%=      5-min Rain = 0
KSW1 180757Z 17010KT 12/03 A3002 RMK A01 T01160028  RH  055%=      5-min Rain = 0
KSW1 180758Z 17010KT 12/03 A3002 RMK A01 T01160029  RH  055%=      5-min Rain = 0
KSW1 180759Z 17009KT 12/03 A3002 RMK A01 T01160028  RH  055%=      5-min Rain = 0
KSW1 180800Z 17009KT 12/03 A3002 RMK A01 T01160029  RH  055%=      5-min Rain = 0
KSW1 180801Z 17009KT 12/03 A3002 RMK A01 T01150028  RH  055%=      5-min Rain = 0
KSW1 180802Z 17009KT 12/03 A3002 RMK A01 T01150028  RH  055%=      5-min Rain = 0
KSW1 180803Z 17009KT 12/03 A3002 RMK A01 T01150028  RH  055%=      5-min Rain = 0
KSW1 180804Z 17009KT 12/03 A3002 RMK A01 T01150028  RH  055%=      5-min Rain = 0
KSW1 180805Z 17009KT 12/03 A3001 RMK A01 T01150028  RH  055%=      5-min Rain = 0
KSW1 180806Z 17009KT 12/03 A3001 RMK A01 T01150028  RH  055%=      5-min Rain = 0
KSW1 180807Z 17009KT 12/03 A3001 RMK A01 T01150029  RH  055%=      5-min Rain = 0
KSW1 180808Z 17009KT 12/03 A3001 RMK A01 T01150028  RH  055%=      5-min Rain = 0
KSW1 180809Z 17009KT 12/03 A3001 RMK A01 T01160028  RH  055%=      5-min Rain = 0
KSW1 180810Z 17009KT 12/03 A3001 RMK A01 T01160028  RH  055%=      5-min Rain = 0
KSW1 180811Z 17009KT 12/03 A3001 RMK A01 T01160029  RH  055%=      5-min Rain = 0
KSW1 180812Z 17010KT 12/03 A3001 RMK A01 T01160029  RH  055%=      5-min Rain = 0
KSW1 180813Z 17009KT 12/03 A3001 RMK A01 T01160028  RH  055%=      5-min Rain = 0
KSW1 180814Z 17009KT 12/03 A3001 RMK A01 T01170029  RH  055%=      5-min Rain = 0
KSW1 180815Z 17009KT 12/03 A3001 RMK A01 T01170029  RH  055%=      5-min Rain = 0
KSW1 180816Z 17008KT 12/03 A3001 RMK A01 T01160029  RH  055%=      5-min Rain = 0
KSW1 180817Z 17009KT 12/03 A3001 RMK A01 T01150029  RH  055%=      5-min Rain = 0
KSW1 180818Z 17009KT 12/03 A3001 RMK A01 T01150029  RH  056%=      5-min Rain = 0
KSW1 180819Z 17009KT 12/03 A3001 RMK A01 T01150029  RH  056%=      5-min Rain = 0
KSW1 180820Z 17009KT 12/03 A3001 RMK A01 T01150029  RH  055%=      5-min Rain = 0
KSW1 180821Z 17009KT 12/03 A3001 RMK A01 T01150029  RH  055%=      5-min Rain = 0
KSW1 180822Z 18010KT 12/03 A3001 RMK A01 T01150029  RH  055%=      5-min Rain = 0
KSW1 180823Z 18009KT 12/03 A3001 RMK A01 T01150029  RH  055%=      5-min Rain = 0
KSW1 180824Z 18009KT 12/03 A3001 RMK A01 T01150029  RH  055%=      5-min Rain = 0
KSW1 180825Z 18010KT 12/03 A3001 RMK A01 T01150030  RH  056%=      5-min Rain = 0
KSW1 180826Z 18009KT 12/03 A30 RMK A01 T01150030  RH  056%=      5-min Rain = 0
KSW1 180827Z 18009KT 12/03 A3001 RMK A01 T01150030  RH  056%=      5-min Rain = 0
KSW1 180828Z 18009KT 11/03 A3001 RMK A01 T01140030  RH  056%=      5-min Rain = 0
KSW1 180829Z 18009KT 11/03 A30 RMK A01 T01140030  RH  056%=      5-min Rain = 0
KSW1 180830Z 18009KT 11/03 A30 RMK A01 T01140030  RH  056%=      5-min Rain = 0
KSW1 180831Z 18010KT 11/03 A30 RMK A01 T01140030  RH  056%=      5-min Rain = 0
KSW1 180832Z 18010KT 12/03 A30 RMK A01 T01150029  RH  056%=      5-min Rain = 0
KSW1 180833Z 18009KT 12/03 A30 RMK A01 T01160030  RH  055%=      5-min Rain = 0
KSW1 180834Z 18010KT 12/03 A30 RMK A01 T01160030  RH  055%=      5-min Rain = 0
KSW1 180835Z 18009KT 12/03 A30 RMK A01 T01160030  RH  055%=      5-min Rain = 0
KSW1 180836Z 18010KT 12/03 A30 RMK A01 T01160030  RH  055%=      5-min Rain = 0
KSW1 180837Z 18010KT 12/03 A30 RMK A01 T01170030  RH  055%=      5-min Rain = 0
KSW1 180838Z 18010KT 12/03 A30 RMK A01 T01170029  RH  055%=      5-min Rain = 0
KSW1 180839Z 18010KT 12/03 A30 RMK A01 T01180030  RH  055%=      5-min Rain = 0
KSW1 180840Z 18011KT 12/03 A30 RMK A01 T01180030  RH  055%=      5-min Rain = 0
KSW1 180841Z 18010KT 12/03 A30 RMK A01 T01180030  RH  055%=      5-min Rain = 0
KSW1 180842Z 18009KT 12/03 A30 RMK A01 T01180031  RH  055%=      5-min Rain = 0
KSW1 180843Z 18010KT 12/03 A30 RMK A01 T01180031  RH  055%=      5-min Rain = 0
KSW1 180844Z 18010KT 12/03 A30 RMK A01 T01180031  RH  055%=      5-min Rain = 0
KSW1 180845Z 18011KT 12/03 A30 RMK A01 T01180031  RH  055%=      5-min Rain = 0
KSW1 180846Z 18011KT 12/03 A30 RMK A01 T01180031  RH  055%=      5-min Rain = 0
KSW1 180847Z 18011KT 12/03 A30 RMK A01 T01180031  RH  055%=      5-min Rain = 0
KSW1 180848Z 18011KT 12/03 A30 RMK A01 T01180031  RH  055%=      5-min Rain = 0
KSW1 180849Z 18011KT 12/03 A30 RMK A01 T01180031  RH  055%=      5-min Rain = 0
KSW1 180850Z 18010KT 12/03 A30 RMK A01 T01180031  RH  055%=      5-min Rain = 0
KSW1 180851Z 18011KT 12/03 A30 RMK A01 T01180031  RH  055%=      5-min Rain = 0
KSW1 180852Z 18010KT 12/03 A30 RMK A01 T01180031  RH  055%=      5-min Rain = 0
KSW1 180853Z 18011KT 12/03 A30 RMK A01 T01170031  RH  055%=      5-min Rain = 0
KSW1 180854Z 18012KT 12/03 A30 RMK A01 T01180030  RH  055%=      5-min Rain = 0
KSW1 180855Z 18011KT 12/03 A30 RMK A01 T01190031  RH  055%=      5-min Rain = 0
KSW1 180856Z 18010KT 12/03 A30 RMK A01 T01190031  RH  055%=      5-min Rain = 0
KSW1 180857Z 18010KT 12/03 A30 RMK A01 T01190031  RH  055%=      5-min Rain = 0
KSW1 180858Z 17010KT 12/03 A30 RMK A01 T01180031  RH  055%=      5-min Rain = 0
KSW1 180859Z 17010KT 12/03 A30 RMK A01 T01180031  RH  055%=      5-min Rain = 0
KSW1 180900Z 17010KT 12/03 A30 RMK A01 T01180031  RH  055%=      5-min Rain = 0
KSW1 180901Z 18010KT 12/03 A30 RMK A01 T01180031  RH  055%=      5-min Rain = 0
KSW1 180902Z 17009KT 12/03 A30 RMK A01 T01180031  RH  055%=      5-min Rain = 0
KSW1 180903Z 18010KT 12/03 A30 RMK A01 T01180031  RH  055%=      5-min Rain = 0
KSW1 180904Z 18009KT 12/03 A30 RMK A01 T01180031  RH  055%=      5-min Rain = 0
KSW1 180905Z 18010KT 12/03 A30 RMK A01 T01170031  RH  055%=      5-min Rain = 0
KSW1 180906Z 18010KT 12/03 A30 RMK A01 T01170030  RH  055%=      5-min Rain = 0
KSW1 180907Z 18010KT 12/03 A30 RMK A01 T01190031  RH  055%=      5-min Rain = 0
KSW1 180908Z 18009KT 12/03 A30 RMK A01 T01180031  RH  055%=      5-min Rain = 0
KSW1 180909Z 18010KT 12/03 A30 RMK A01 T01180031  RH  055%=      5-min Rain = 0
KSW1 180910Z 18008KT 12/03 A30 RMK A01 T01180031  RH  055%=      5-min Rain = 0
KSW1 180911Z 18009KT 12/03 A30 RMK A01 T01170031  RH  055%=      5-min Rain = 0
KSW1 180912Z 18009KT 12/03 A30 RMK A01 T01170031  RH  055%=      5-min Rain = 0
KSW1 180913Z 17009KT 12/03 A30 RMK A01 T01180031  RH  055%=      5-min Rain = 0
KSW1 180914Z 18010KT 12/03 A30 RMK A01 T01170030  RH  055%=      5-min Rain = 0
KSW1 180915Z 18008KT 12/03 A30 RMK A01 T01180030  RH  055%=      5-min Rain = 0
KSW1 180916Z 17008KT 12/03 A30 RMK A01 T01180031  RH  055%=      5-min Rain = 0
KSW1 180917Z 18008KT 12/03 A30 RMK A01 T01170031  RH  055%=      5-min Rain = 0
KSW1 180918Z 18009KT 12/03 A30 RMK A01 T01170030  RH  055%=      5-min Rain = 0
KSW1 180919Z 18009KT 12/03 A30 RMK A01 T01170030  RH  055%=      5-min Rain = 0
KSW1 180920Z 18009KT 12/03 A30 RMK A01 T01170031  RH  055%=      5-min Rain = 0
KSW1 180921Z 18008KT 12/03 A30 RMK A01 T01170031  RH  055%=      5-min Rain = 0
KSW1 180922Z 19007KT 12/03 A30 RMK A01 T01160031  RH  056%=      5-min Rain = 0
KSW1 180923Z 18008KT 12/03 A30 RMK A01 T01150031  RH  056%=      5-min Rain = 0
KSW1 180924Z 19008KT 12/03 A2999 RMK A01 T01150031  RH  056%=      5-min Rain = 0
KSW1 180925Z 19007KT 12/03 A2999 RMK A01 T01160031  RH  056%=      5-min Rain = 0
KSW1 180926Z 19007KT 12/03 A30 RMK A01 T01160031  RH  056%=      5-min Rain = 0
KSW1 180927Z 19008KT 12/03 A30 RMK A01 T01160031  RH  056%=      5-min Rain = 0
KSW1 180928Z 19007KT 12/03 A30 RMK A01 T01160031  RH  056%=      5-min Rain = 0
KSW1 180929Z 19006KT 12/03 A30 RMK A01 T01160031  RH  056%=      5-min Rain = 0
KSW1 180930Z 19007KT 12/03 A30 RMK A01 T01150031  RH  057%=      5-min Rain = 0
KSW1 180931Z 19007KT 11/03 A30 RMK A01 T01140031  RH  057%=      5-min Rain = 0
KSW1 180932Z 19006KT 12/03 A30 RMK A01 T01150031  RH  056%=      5-min Rain = 0
KSW1 180933Z 20006KT 12/03 A30 RMK A01 T01150031  RH  056%=      5-min Rain = 0
KSW1 180934Z 20006KT 12/03 A30 RMK A01 T01150031  RH  056%=      5-min Rain = 0
KSW1 180935Z 20006KT 11/03 A30 RMK A01 T01140031  RH  057%=      5-min Rain = 0
KSW1 180936Z 20005KT 11/03 A2999 RMK A01 T01140031  RH  057%=      5-min Rain = 0
KSW1 180937Z 19006KT 11/03 A2999 RMK A01 T01130031  RH  057%=      5-min Rain = 0
KSW1 180938Z 20006KT 11/03 A2999 RMK A01 T01140031  RH  057%=      5-min Rain = 0
KSW1 180939Z 19006KT 11/03 A2999 RMK A01 T01140031  RH  057%=      5-min Rain = 0
KSW1 180940Z 19006KT 11/03 A2999 RMK A01 T01130032  RH  057%=      5-min Rain = 0
KSW1 180941Z 19006KT 11/03 A2999 RMK A01 T01130031  RH  057%=      5-min Rain = 0
KSW1 180942Z 19006KT 11/03 A2999 RMK A01 T01130031  RH  057%=      5-min Rain = 0
KSW1 180943Z 19008KT 11/03 A2999 RMK A01 T01120031  RH  057%=      5-min Rain = 0
KSW1 180944Z 18007KT 11/03 A2999 RMK A01 T01120031  RH  058%=      5-min Rain = 0
KSW1 180945Z 18008KT 11/03 A2999 RMK A01 T01110031  RH  058%=      5-min Rain = 0
KSW1 180946Z 18008KT 11/03 A2999 RMK A01 T01100032  RH  058%=      5-min Rain = 0
KSW1 180947Z 18008KT 11/03 A2999 RMK A01 T01090031  RH  059%=      5-min Rain = 0
KSW1 180948Z 18008KT 11/03 A2999 RMK A01 T01090032  RH  059%=      5-min Rain = 0
KSW1 180949Z 18009KT 11/03 A2999 RMK A01 T01080031  RH  059%=      5-min Rain = 0
KSW1 180950Z 18010KT 11/03 A2999 RMK A01 T01080032  RH  059%=      5-min Rain = 0
KSW1 180951Z 18009KT 11/03 A2999 RMK A01 T01090031  RH  059%=      5-min Rain = 0
KSW1 180952Z 18009KT 11/03 A2999 RMK A01 T01090032  RH  059%=      5-min Rain = 0
KSW1 180953Z 18009KT 11/03 A2999 RMK A01 T01090032  RH  059%=      5-min Rain = 0
KSW1 180954Z 18009KT 11/03 A2998 RMK A01 T01080032  RH  059%=      5-min Rain = 0
KSW1 180955Z 18009KT 11/03 A2998 RMK A01 T01080031  RH  059%=      5-min Rain = 0
KSW1 180956Z 18009KT 11/03 A2998 RMK A01 T01090032  RH  059%=      5-min Rain = 0
KSW1 180957Z 18009KT 11/03 A2998 RMK A01 T01090031  RH  059%=      5-min Rain = 0
KSW1 180958Z 18009KT 11/03 A2998 RMK A01 T01090031  RH  059%=      5-min Rain = 0
KSW1 180959Z 18008KT 11/03 A2998 RMK A01 T01090031  RH  059%=      5-min Rain = 0
KSW1 181000Z 18009KT 11/03 A2998 RMK A01 T01080031  RH  059%=      5-min Rain = 0
KSW1 181001Z 18009KT 11/03 A2998 RMK A01 T01080031  RH  059%=      5-min Rain = 0
KSW1 181002Z 18009KT 11/03 A2998 RMK A01 T01080031  RH  059%=      5-min Rain = 0
KSW1 181003Z 18009KT 11/03 A2998 RMK A01 T01080031  RH  059%=      5-min Rain = 0
KSW1 181004Z 18009KT 11/03 A2998 RMK A01 T01080030  RH  058%=      5-min Rain = 0
KSW1 181005Z 18008KT 11/03 A2998 RMK A01 T01080030  RH  058%=      5-min Rain = 0
KSW1 181006Z 18009KT 11/03 A2998 RMK A01 T01080030  RH  058%=      5-min Rain = 0
KSW1 181007Z 18008KT 11/03 A2998 RMK A01 T01080030  RH  059%=      5-min Rain = 0
KSW1 181008Z 18008KT 11/03 A2998 RMK A01 T01080030  RH  058%=      5-min Rain = 0
KSW1 181009Z 18008KT 11/03 A2998 RMK A01 T01080029  RH  058%=      5-min Rain = 0
KSW1 181010Z 18008KT 11/03 A2998 RMK A01 T01080029  RH  058%=      5-min Rain = 0
KSW1 181011Z 19007KT 11/03 A2998 RMK A01 T01090029  RH  058%=      5-min Rain = 0
KSW1 181012Z 19008KT 11/03 A2998 RMK A01 T01090029  RH  058%=      5-min Rain = 0
KSW1 181013Z 19008KT 11/03 A2998 RMK A01 T01090029  RH  058%=      5-min Rain = 0
KSW1 181014Z 19008KT 11/03 A2998 RMK A01 T01090028  RH  057%=      5-min Rain = 0
KSW1 181015Z 19007KT 11/03 A2998 RMK A01 T01100028  RH  057%=      5-min Rain = 0
KSW1 181016Z 19007KT 11/03 A2998 RMK A01 T01100029  RH  058%=      5-min Rain = 0
KSW1 181017Z 19006KT 11/03 A2997 RMK A01 T01080028  RH  058%=      5-min Rain = 0
KSW1 181018Z 19006KT 11/03 A2997 RMK A01 T01080028  RH  058%=      5-min Rain = 0
KSW1 181019Z 20007KT 11/03 A2997 RMK A01 T01080028  RH  057%=      5-min Rain = 0
KSW1 181020Z 20006KT 11/03 A2997 RMK A01 T01090028  RH  057%=      5-min Rain = 0
KSW1 181021Z 20006KT 11/03 A2997 RMK A01 T01090028  RH  057%=      5-min Rain = 0
KSW1 181022Z 20006KT 11/03 A2997 RMK A01 T01090028  RH  057%=      5-min Rain = 0
KSW1 181023Z 19007KT 11/03 A2997 RMK A01 T01080027  RH  058%=      5-min Rain = 0
KSW1 181024Z 19008KT 11/03 A2997 RMK A01 T01070027  RH  058%=      5-min Rain = 0
KSW1 181025Z 19006KT 11/03 A2997 RMK A01 T01080027  RH  057%=      5-min Rain = 0
KSW1 181026Z 19007KT 11/03 A2997 RMK A01 T01070027  RH  057%=      5-min Rain = 0
KSW1 181027Z 19008KT 11/03 A2997 RMK A01 T01080027  RH  057%=      5-min Rain = 0
KSW1 181028Z 18008KT 11/03 A2997 RMK A01 T01080027  RH  058%=      5-min Rain = 0
KSW1 181029Z 19007KT 11/03 A2997 RMK A01 T01060027  RH  058%=      5-min Rain = 0
KSW1 181030Z 19008KT 11/03 A2997 RMK A01 T01050027  RH  058%=      5-min Rain = 0
KSW1 181031Z 18008KT 11/03 A2997 RMK A01 T01050027  RH  058%=      5-min Rain = 0
KSW1 181032Z 18008KT 10/03 A2997 RMK A01 T01040027  RH  059%=      5-min Rain = 0
KSW1 181033Z 18008KT 10/03 A2997 RMK A01 T01030027  RH  059%=      5-min Rain = 0
KSW1 181034Z 18008KT 10/03 A2997 RMK A01 T01030027  RH  059%=      5-min Rain = 0
KSW1 181035Z 18008KT 10/03 A2997 RMK A01 T01010026  RH  060%=      5-min Rain = 0
KSW1 181036Z 18008KT 10/03 A2997 RMK A01 T01010026  RH  060%=      5-min Rain = 0
KSW1 181037Z 18007KT 10/03 A2997 RMK A01 T01010026  RH  060%=      5-min Rain = 0
KSW1 181038Z 18008KT 10/03 A2997 RMK A01 T01010026  RH  060%=      5-min Rain = 0
KSW1 181039Z 18008KT 10/03 A2997 RMK A01 T01000026  RH  060%=      5-min Rain = 0
KSW1 181040Z 18008KT 10/03 A2997 RMK A01 T01010026  RH  060%=      5-min Rain = 0
KSW1 181041Z 18008KT 10/03 A2996 RMK A01 T01000026  RH  060%=      5-min Rain = 0
KSW1 181042Z 18008KT 10/03 A2996 RMK A01 T01000026  RH  060%=      5-min Rain = 0
KSW1 181043Z 18008KT 10/03 A2996 RMK A01 T00990026  RH  060%=      5-min Rain = 0
KSW1 181044Z 18007KT 10/03 A2996 RMK A01 T00990025  RH  060%=      5-min Rain = 0
KSW1 181045Z 18007KT 10/03 A2996 RMK A01 T00990025  RH  060%=      5-min Rain = 0
KSW1 181046Z 18007KT 10/03 A2996 RMK A01 T00990025  RH  060%=      5-min Rain = 0
KSW1 181047Z 18007KT 10/03 A2996 RMK A01 T00990025  RH  060%=      5-min Rain = 0
KSW1 181048Z 18007KT 10/03 A2996 RMK A01 T00990025  RH  060%=      5-min Rain = 0
KSW1 181049Z 18007KT 10/03 A2996 RMK A01 T00990025  RH  060%=      5-min Rain = 0
KSW1 181050Z 18007KT 10/03 A2996 RMK A01 T00980025  RH  060%=      5-min Rain = 0
KSW1 181051Z 18007KT 10/02 A2996 RMK A01 T00970024  RH  060%=      5-min Rain = 0
KSW1 181052Z 18007KT 10/02 A2996 RMK A01 T00970024  RH  060%=      5-min Rain = 0
KSW1 181053Z 18006KT 10/02 A2996 RMK A01 T00970024  RH  060%=      5-min Rain = 0
KSW1 181054Z 18006KT 10/02 A2995 RMK A01 T00970024  RH  060%=      5-min Rain = 0
KSW1 181055Z 18007KT 10/02 A2995 RMK A01 T00980024  RH  060%=      5-min Rain = 0
KSW1 181056Z 18008KT 10/02 A2995 RMK A01 T00980024  RH  060%=      5-min Rain = 0
KSW1 181057Z 18007KT 10/02 A2995 RMK A01 T00990024  RH  059%=      5-min Rain = 0
KSW1 181058Z 18007KT 10/02 A2995 RMK A01 T01000024  RH  059%=      5-min Rain = 0
KSW1 181059Z 18007KT 10/02 A2995 RMK A01 T01000024  RH  059%=      5-min Rain = 0
KSW1 181100Z 18006KT 10/02 A2995 RMK A01 T01010024  RH  059%=      5-min Rain = 0
KSW1 181101Z 18007KT 10/02 A2995 RMK A01 T01010024  RH  059%=      5-min Rain = 0
KSW1 181102Z 18007KT 10/02 A2995 RMK A01 T01010024  RH  059%=      5-min Rain = 0
KSW1 181103Z 18007KT 10/02 A2995 RMK A01 T01010024  RH  059%=      5-min Rain = 0
KSW1 181104Z 18007KT 10/02 A2995 RMK A01 T01010024  RH  059%=      5-min Rain = 0
KSW1 181105Z 18006KT 10/02 A2995 RMK A01 T01010024  RH  059%=      5-min Rain = 0
KSW1 181106Z 18006KT 10/02 A2995 RMK A01 T01000023  RH  059%=      5-min Rain = 0
KSW1 181107Z 18007KT 10/02 A2995 RMK A01 T01000023  RH  059%=      5-min Rain = 0
KSW1 181108Z 18007KT 10/02 A2995 RMK A01 T01010023  RH  058%=      5-min Rain = 0
KSW1 181109Z 18007KT 10/02 A2994 RMK A01 T01010023  RH  058%=      5-min Rain = 0
KSW1 181110Z 18006KT 10/02 A2994 RMK A01 T01010023  RH  058%=      5-min Rain = 0
KSW1 181111Z 18006KT 10/02 A2994 RMK A01 T01010023  RH  058%=      5-min Rain = 0
KSW1 181112Z 18007KT 10/02 A2994 RMK A01 T01000022  RH  058%=      5-min Rain = 0
KSW1 181113Z 18006KT 10/02 A2994 RMK A01 T01010022  RH  058%=      5-min Rain = 0
KSW1 181114Z 18007KT 10/02 A2994 RMK A01 T01020022  RH  057%=      5-min Rain = 0
KSW1 181115Z 18006KT 10/02 A2994 RMK A01 T01030022  RH  057%=      5-min Rain = 0
KSW1 181116Z 18006KT 10/02 A2994 RMK A01 T01030022  RH  057%=      5-min Rain = 0
KSW1 181117Z 18006KT 10/02 A2994 RMK A01 T01030022  RH  057%=      5-min Rain = 0
KSW1 181118Z 18006KT 10/02 A2994 RMK A01 T01030022  RH  057%=      5-min Rain = 0
KSW1 181119Z 19007KT 10/02 A2994 RMK A01 T01030022  RH  058%=      5-min Rain = 0
KSW1 181120Z 19006KT 10/02 A2993 RMK A01 T01030023  RH  058%=      5-min Rain = 0
KSW1 181121Z 18007KT 10/02 A2993 RMK A01 T01030022  RH  057%=      5-min Rain = 0
KSW1 181122Z 19007KT 10/02 A2993 RMK A01 T01030022  RH  057%=      5-min Rain = 0
KSW1 181123Z 19006KT 10/02 A2993 RMK A01 T01030022  RH  057%=      5-min Rain = 0
KSW1 181124Z 19006KT 10/02 A2993 RMK A01 T01040022  RH  057%=      5-min Rain = 0
KSW1 181125Z 18006KT 11/02 A2993 RMK A01 T01050022  RH  056%=      5-min Rain = 0
KSW1 181126Z 19006KT 11/02 A2993 RMK A01 T01050022  RH  056%=      5-min Rain = 0
KSW1 181127Z 19006KT 11/02 A2993 RMK A01 T01050022  RH  057%=      5-min Rain = 0
KSW1 181128Z 19007KT 11/02 A2993 RMK A01 T01050022  RH  056%=      5-min Rain = 0
KSW1 181129Z 19006KT 11/02 A2993 RMK A01 T01060022  RH  056%=      5-min Rain = 0
KSW1 181130Z 19006KT 11/02 A2993 RMK A01 T01070022  RH  056%=      5-min Rain = 0
KSW1 181131Z 19005KT 11/02 A2993 RMK A01 T01070022  RH  056%=      5-min Rain = 0
KSW1 181132Z 20006KT 11/02 A2993 RMK A01 T01070023  RH  056%=      5-min Rain = 0
KSW1 181133Z 19007KT 11/02 A2993 RMK A01 T01070022  RH  056%=      5-min Rain = 0
KSW1 181134Z 19006KT 11/02 A2993 RMK A01 T01070022  RH  056%=      5-min Rain = 0
KSW1 181135Z 20006KT 11/02 A2993 RMK A01 T01080022  RH  055%=      5-min Rain = 0
KSW1 181136Z 20005KT 11/02 A2993 RMK A01 T01090022  RH  055%=      5-min Rain = 0
KSW1 181137Z 20007KT 11/02 A2993 RMK A01 T01090022  RH  055%=      5-min Rain = 0
KSW1 181138Z 20005KT 11/02 A2993 RMK A01 T01090022  RH  055%=      5-min Rain = 0
KSW1 181139Z 20007KT 11/02 A2993 RMK A01 T01090022  RH  055%=      5-min Rain = 0
KSW1 181140Z 21005KT 11/02 A2993 RMK A01 T01090022  RH  055%=      5-min Rain = 0
KSW1 181141Z 21005KT 11/02 A2993 RMK A01 T01100022  RH  055%=      5-min Rain = 0
KSW1 181142Z 21006KT 11/02 A2993 RMK A01 T01080022  RH  055%=      5-min Rain = 0
KSW1 181143Z 21005KT 11/02 A2993 RMK A01 T01080022  RH  055%=      5-min Rain = 0
KSW1 181144Z 22005KT 11/02 A2993 RMK A01 T01090022  RH  055%=      5-min Rain = 0
KSW1 181145Z 22004KT 11/02 A2993 RMK A01 T01090022  RH  055%=      5-min Rain = 0
KSW1 181146Z 22004KT 11/02 A2993 RMK A01 T01090022  RH  055%=      5-min Rain = 0
KSW1 181147Z 23003KT 11/02 A2993 RMK A01 T01070022  RH  056%=      5-min Rain = 0
KSW1 181148Z 23003KT 11/02 A2993 RMK A01 T01060022  RH  056%=      5-min Rain = 0
KSW1 181149Z 22004KT 10/02 A2993 RMK A01 T01040022  RH  057%=      5-min Rain = 0
KSW1 181150Z 24003KT 10/02 A2993 RMK A01 T01030022  RH  057%=      5-min Rain = 0
KSW1 181151Z 23003KT 10/02 A2993 RMK A01 T01030022  RH  057%=      5-min Rain = 0
KSW1 181152Z 23003KT 10/02 A2993 RMK A01 T01030022  RH  057%=      5-min Rain = 0
KSW1 181153Z 23004KT 10/02 A2993 RMK A01 T01030022  RH  057%=      5-min Rain = 0
KSW1 181154Z 22004KT 10/02 A2993 RMK A01 T01030022  RH  057%=      5-min Rain = 0
KSW1 181155Z 21004KT 10/02 A2993 RMK A01 T01040022  RH  057%=      5-min Rain = 0
KSW1 181156Z 20005KT 10/02 A2993 RMK A01 T01030022  RH  057%=      5-min Rain = 0
KSW1 181157Z 21004KT 10/02 A2993 RMK A01 T01040022  RH  057%=      5-min Rain = 0
KSW1 181158Z 20005KT 10/02 A2993 RMK A01 T01040022  RH  057%=      5-min Rain = 0
KSW1 181159Z 20005KT 10/02 A2993 RMK A01 T01040022  RH  057%=      5-min Rain = 0
KSW1 181200Z 20005KT 10/02 A2993 RMK A01 T01040022  RH  057%=      5-min Rain = 0
KSW1 181201Z 20006KT 10/02 A2993 RMK A01 T01040022  RH  057%=      5-min Rain = 0
KSW1 181202Z 20006KT 10/02 A2992 RMK A01 T01040023  RH  057%=      5-min Rain = 0
KSW1 181203Z 20005KT 10/02 A2992 RMK A01 T01030023  RH  057%=      5-min Rain = 0
KSW1 181204Z 20005KT 10/02 A2992 RMK A01 T01030023  RH  057%=      5-min Rain = 0
KSW1 181205Z 20005KT 10/02 A2992 RMK A01 T01030023  RH  057%=      5-min Rain = 0
KSW1 181206Z 19005KT 10/02 A2992 RMK A01 T01030023  RH  057%=      5-min Rain = 0
KSW1 181207Z 20004KT 10/02 A2992 RMK A01 T01030023  RH  057%=      5-min Rain = 0
KSW1 181208Z 21005KT 10/02 A2993 RMK A01 T01030023  RH  057%=      5-min Rain = 0
KSW1 181209Z 21004KT 10/02 A2993 RMK A01 T01030023  RH  057%=      5-min Rain = 0
KSW1 181210Z 20005KT 10/02 A2993 RMK A01 T01030023  RH  057%=      5-min Rain = 0
KSW1 181211Z 20004KT 10/02 A2993 RMK A01 T01030023  RH  058%=      5-min Rain = 0
KSW1 181212Z 19004KT 10/02 A2993 RMK A01 T01030023  RH  058%=      5-min Rain = 0
KSW1 181213Z 19005KT 10/02 A2992 RMK A01 T01040024  RH  058%=      5-min Rain = 0
KSW1 181214Z 19005KT 10/02 A2992 RMK A01 T01030024  RH  058%=      5-min Rain = 0
KSW1 181215Z 19005KT 10/02 A2992 RMK A01 T01030024  RH  058%=      5-min Rain = 0
KSW1 181216Z 18004KT 10/02 A2992 RMK A01 T01030024  RH  058%=      5-min Rain = 0
KSW1 181217Z 19004KT 10/02 A2992 RMK A01 T01020024  RH  058%=      5-min Rain = 0
KSW1 181218Z 18005KT 10/02 A2992 RMK A01 T01010024  RH  059%=      5-min Rain = 0
KSW1 181219Z 18005KT 10/02 A2992 RMK A01 T01010024  RH  059%=      5-min Rain = 0
KSW1 181220Z 18005KT 10/02 A2992 RMK A01 T01010024  RH  059%=      5-min Rain = 0
KSW1 181221Z 18006KT 10/02 A2992 RMK A01 T01000024  RH  059%=      5-min Rain = 0
KSW1 181222Z 19005KT 10/02 A2992 RMK A01 T01000024  RH  059%=      5-min Rain = 0
KSW1 181223Z 19005KT 10/03 A2992 RMK A01 T01010025  RH  059%=      5-min Rain = 0
KSW1 181224Z 19005KT 10/03 A2992 RMK A01 T01010025  RH  059%=      5-min Rain = 0
KSW1 181225Z 19006KT 10/03 A2992 RMK A01 T01010025  RH  060%=      5-min Rain = 0
KSW1 181226Z 19005KT 10/03 A2992 RMK A01 T01010026  RH  059%=      5-min Rain = 0
KSW1 181227Z 19006KT 10/03 A2992 RMK A01 T01010025  RH  059%=      5-min Rain = 0
KSW1 181228Z 19006KT 10/03 A2992 RMK A01 T01010026  RH  060%=      5-min Rain = 0
KSW1 181229Z 19006KT 10/03 A2992 RMK A01 T01000025  RH  060%=      5-min Rain = 0
KSW1 181230Z 19005KT 10/03 A2992 RMK A01 T01000025  RH  060%=      5-min Rain = 0
KSW1 181231Z 19005KT 10/03 A2992 RMK A01 T01010026  RH  059%=      5-min Rain = 0
KSW1 181232Z 19006KT 10/03 A2992 RMK A01 T01010026  RH  059%=      5-min Rain = 0
KSW1 181233Z 19006KT 10/03 A2992 RMK A01 T01010026  RH  060%=      5-min Rain = 0
KSW1 181234Z 19006KT 10/03 A2992 RMK A01 T01010026  RH  059%=      5-min Rain = 0
KSW1 181235Z 19005KT 10/03 A2992 RMK A01 T01020026  RH  059%=      5-min Rain = 0
KSW1 181236Z 19006KT 10/03 A2992 RMK A01 T01020026  RH  059%=      5-min Rain = 0
KSW1 181237Z 19005KT 10/03 A2992 RMK A01 T01020026  RH  059%=      5-min Rain = 0
KSW1 181238Z 19005KT 10/03 A2992 RMK A01 T01020026  RH  059%=      5-min Rain = 0
KSW1 181239Z 19006KT 10/03 A2992 RMK A01 T01020026  RH  059%=      5-min Rain = 0
KSW1 181240Z 19006KT 10/03 A2991 RMK A01 T01020026  RH  059%=      5-min Rain = 0
KSW1 181241Z 18006KT 10/03 A2991 RMK A01 T01020026  RH  059%=      5-min Rain = 0
KSW1 181242Z 19006KT 10/03 A2991 RMK A01 T01030026  RH  059%=      5-min Rain = 0
KSW1 181243Z 19006KT 10/03 A2991 RMK A01 T01020026  RH  059%=      5-min Rain = 0
KSW1 181244Z 18008KT 10/03 A2991 RMK A01 T01020027  RH  060%=      5-min Rain = 0
KSW1 181245Z 19009KT 10/03 A2991 RMK A01 T01030027  RH  060%=      5-min Rain = 0
KSW1 181246Z 19008KT 10/03 A2991 RMK A01 T01040027  RH  059%=      5-min Rain = 0
KSW1 181247Z 19007KT 11/03 A2991 RMK A01 T01050028  RH  059%=      5-min Rain = 0
KSW1 181248Z 19007KT 11/03 A2991 RMK A01 T01050028  RH  059%=      5-min Rain = 0
KSW1 181249Z 20007KT 11/03 A2991 RMK A01 T01060028  RH  059%=      5-min Rain = 0
KSW1 181250Z 20006KT 11/03 A2991 RMK A01 T01050028  RH  059%=      5-min Rain = 0
KSW1 181251Z 20005KT 11/03 A2991 RMK A01 T01050029  RH  059%=      5-min Rain = 0
KSW1 181252Z 21005KT 10/03 A2991 RMK A01 T01030028  RH  060%=      5-min Rain = 0
KSW1 181253Z 21005KT 10/03 A2991 RMK A01 T01030029  RH  060%=      5-min Rain = 0
KSW1 181254Z 22005KT 10/03 A2991 RMK A01 T01020028  RH  060%=      5-min Rain = 0
KSW1 181255Z 22005KT 10/03 A2991 RMK A01 T01020028  RH  060%=      5-min Rain = 0
KSW1 181256Z 22004KT 10/03 A2991 RMK A01 T01010028  RH  060%=      5-min Rain = 0
KSW1 181257Z 22003KT 10/03 A2991 RMK A01 T01000028  RH  061%=      5-min Rain = 0
KSW1 181258Z 21003KT 10/03 A2991 RMK A01 T00990028  RH  061%=      5-min Rain = 0
KSW1 181259Z 22004KT 10/03 A2991 RMK A01 T00980028  RH  061%=      5-min Rain = 0
KSW1 181300Z 21003KT 10/03 A2991 RMK A01 T00980027  RH  062%=      5-min Rain = 0
KSW1 181301Z 21004KT 10/03 A2991 RMK A01 T00980027  RH  062%=      5-min Rain = 0
KSW1 181302Z 20004KT 10/03 A2991 RMK A01 T00980027  RH  061%=      5-min Rain = 0
KSW1 181303Z 20004KT 10/03 A2991 RMK A01 T00990027  RH  061%=      5-min Rain = 0
KSW1 181304Z 20005KT 10/03 A2991 RMK A01 T00990028  RH  061%=      5-min Rain = 0
KSW1 181305Z 20004KT 10/03 A2991 RMK A01 T00990028  RH  061%=      5-min Rain = 0
KSW1 181306Z 20006KT 10/03 A2991 RMK A01 T00990028  RH  061%=      5-min Rain = 0
KSW1 181307Z 20006KT 10/03 A2991 RMK A01 T00990028  RH  061%=      5-min Rain = 0
KSW1 181308Z 19007KT 10/03 A2991 RMK A01 T00980029  RH  062%=      5-min Rain = 0
KSW1 181309Z 19009KT 10/03 A2991 RMK A01 T00990030  RH  062%=      5-min Rain = 0
KSW1 181310Z 19009KT 10/03 A299 RMK A01 T01000030  RH  062%=      5-min Rain = 0
KSW1 181311Z 19009KT 10/03 A299 RMK A01 T01010031  RH  062%=      5-min Rain = 0
KSW1 181312Z 19010KT 10/03 A299 RMK A01 T01010031  RH  062%=      5-min Rain = 0
KSW1 181313Z 18010KT 10/03 A299 RMK A01 T01010030  RH  062%=      5-min Rain = 0
KSW1 181314Z 19010KT 10/03 A299 RMK A01 T01010031  RH  062%=      5-min Rain = 0
KSW1 181315Z 18011KT 10/03 A299 RMK A01 T01010031  RH  062%=      5-min Rain = 0
KSW1 181316Z 18012KT 10/03 A299 RMK A01 T01020031  RH  062%=      5-min Rain = 0
KSW1 181317Z 18012KT 10/03 A299 RMK A01 T01030031  RH  061%=      5-min Rain = 0
KSW1 181318Z 18011KT 10/03 A299 RMK A01 T01040031  RH  061%=      5-min Rain = 0
KSW1 181319Z 18011KT 10/03 A299 RMK A01 T01040032  RH  061%=      5-min Rain = 0
KSW1 181320Z 18011KT 10/03 A299 RMK A01 T01040031  RH  061%=      5-min Rain = 0
KSW1 181321Z 18011KT 10/03 A299 RMK A01 T01040032  RH  061%=      5-min Rain = 0
KSW1 181322Z 18011KT 10/03 A2989 RMK A01 T01040032  RH  061%=      5-min Rain = 0
KSW1 181323Z 18010KT 10/03 A2989 RMK A01 T01040032  RH  061%=      5-min Rain = 0
KSW1 181324Z 18010KT 10/03 A2989 RMK A01 T01040032  RH  061%=      5-min Rain = 0
KSW1 181325Z 18011KT 10/03 A2989 RMK A01 T01040032  RH  061%=      5-min Rain = 0
KSW1 181326Z 18011KT 11/03 A2989 RMK A01 T01050033  RH  061%=      5-min Rain = 0
KSW1 181327Z 18012KT 11/03 A2989 RMK A01 T01070033  RH  060%=      5-min Rain = 0
KSW1 181328Z 18011KT 11/03 A2989 RMK A01 T01080034  RH  060%=      5-min Rain = 0
KSW1 181329Z 18010KT 11/03 A2989 RMK A01 T01080034  RH  060%=      5-min Rain = 0
KSW1 181330Z 18011KT 11/03 A2989 RMK A01 T01080034  RH  060%=      5-min Rain = 0
KSW1 181331Z 18010KT 11/03 A2989 RMK A01 T01080034  RH  060%=      5-min Rain = 0
KSW1 181332Z 18010KT 11/03 A2989 RMK A01 T01080034  RH  060%=      5-min Rain = 0
KSW1 181333Z 18011KT 11/03 A2989 RMK A01 T01080034  RH  060%=      5-min Rain = 0
KSW1 181334Z 19010KT 11/04 A2989 RMK A01 T01080035  RH  060%=      5-min Rain = 0
KSW1 181335Z 19012KT 11/04 A2989 RMK A01 T01080035  RH  060%=      5-min Rain = 0
KSW1 181336Z 19012KT 11/03 A299 RMK A01 T01090034  RH  060%=      5-min Rain = 0
KSW1 181337Z 19011KT 11/04 A299 RMK A01 T01100035  RH  060%=      5-min Rain = 0
KSW1 181338Z 19010KT 11/04 A299 RMK A01 T01090035  RH  060%=      5-min Rain = 0
KSW1 181339Z 19011KT 11/04 A2989 RMK A01 T01080035  RH  060%=      5-min Rain = 0
KSW1 181340Z 19011KT 11/04 A2989 RMK A01 T01080035  RH  061%=      5-min Rain = 0
KSW1 181341Z 18011KT 11/04 A2989 RMK A01 T01070035  RH  061%=      5-min Rain = 0
KSW1 181342Z 18011KT 11/04 A2989 RMK A01 T01070035  RH  061%=      5-min Rain = 0
KSW1 181343Z 18012KT 11/04 A2989 RMK A01 T01060035  RH  061%=      5-min Rain = 0
KSW1 181344Z 18011KT 11/04 A2989 RMK A01 T01060035  RH  061%=      5-min Rain = 0
KSW1 181345Z 18011KT 11/04 A2989 RMK A01 T01060035  RH  062%=      5-min Rain = 0
KSW1 181346Z 18012KT 11/04 A2989 RMK A01 T01060036  RH  062%=      5-min Rain = 0
KSW1 181347Z 18011KT 11/04 A2989 RMK A01 T01060036  RH  062%=      5-min Rain = 0
KSW1 181348Z 18011KT 11/04 A2989 RMK A01 T01050036  RH  062%=      5-min Rain = 0
KSW1 181349Z 18011KT 11/04 A2989 RMK A01 T01050036  RH  062%=      5-min Rain = 0
KSW1 181350Z 18012KT 11/04 A2989 RMK A01 T01050036  RH  062%=      5-min Rain = 0
KSW1 181351Z 18012KT 11/04 A2989 RMK A01 T01050036  RH  062%=      5-min Rain = 0
KSW1 181352Z 18012KT 11/04 A2989 RMK A01 T01060036  RH  062%=      5-min Rain = 0
KSW1 181353Z 18011KT 11/04 A2989 RMK A01 T01060037  RH  062%=      5-min Rain = 0
KSW1 181354Z 18011KT 11/04 A2989 RMK A01 T01060037  RH  062%=      5-min Rain = 0
KSW1 181355Z 18011KT 11/04 A2989 RMK A01 T01060038  RH  062%=      5-min Rain = 0
KSW1 181356Z 18011KT 11/04 A2989 RMK A01 T01050037  RH  063%=      5-min Rain = 0
KSW1 181357Z 18011KT 11/04 A2989 RMK A01 T01050038  RH  063%=      5-min Rain = 0
KSW1 181358Z 18012KT 11/04 A2989 RMK A01 T01050038  RH  063%=      5-min Rain = 0
KSW1 181359Z 18010KT 11/04 A2989 RMK A01 T01050039  RH  063%=      5-min Rain = 0
KSW1 181400Z 18011KT 11/04 A2989 RMK A01 T01050039  RH  063%=      5-min Rain = 0
KSW1 181401Z 18011KT 11/04 A2989 RMK A01 T01050038  RH  063%=      5-min Rain = 0
KSW1 181402Z 18012KT 11/04 A2989 RMK A01 T01050038  RH  064%=      5-min Rain = 0
KSW1 181403Z 18011KT 11/04 A2989 RMK A01 T01050039  RH  064%=      5-min Rain = 0
KSW1 181404Z 18013KT 11/04 A2989 RMK A01 T01050039  RH  064%=      5-min Rain = 0
KSW1 181405Z 18011KT 11/04 A2989 RMK A01 T01050040  RH  064%=      5-min Rain = 0
KSW1 181406Z 18013KT 11/04 A2989 RMK A01 T01060040  RH  064%=      5-min Rain = 0
KSW1 181407Z 18012KT 11/04 A2989 RMK A01 T01070041  RH  064%=      5-min Rain = 0
KSW1 181408Z 18012KT 11/04 A2989 RMK A01 T01070041  RH  063%=      5-min Rain = 0
KSW1 181409Z 18012KT 11/04 A2989 RMK A01 T01080041  RH  063%=      5-min Rain = 0
KSW1 181410Z 18012KT 11/04 A2989 RMK A01 T01080041  RH  063%=      5-min Rain = 0
KSW1 181411Z 18012KT 11/04 A2989 RMK A01 T01080042  RH  063%=      5-min Rain = 0
KSW1 181412Z 18012KT 11/04 A2989 RMK A01 T01080042  RH  064%=      5-min Rain = 0
KSW1 181413Z 18012KT 11/04 A2989 RMK A01 T01080042  RH  064%=      5-min Rain = 0
KSW1 181414Z 18013KT 11/04 A2989 RMK A01 T01080043  RH  064%=      5-min Rain = 0
KSW1 181415Z 18012KT 11/04 A2989 RMK A01 T01080043  RH  064%=      5-min Rain = 0
KSW1 181416Z 18013KT 11/04 A2989 RMK A01 T01080043  RH  064%=      5-min Rain = 0
KSW1 181417Z 18012KT 11/04 A2989 RMK A01 T01090043  RH  064%=      5-min Rain = 0
KSW1 181418Z 18012KT 11/04 A2988 RMK A01 T01090044  RH  064%=      5-min Rain = 0
KSW1 181419Z 18014KT 11/04 A2988 RMK A01 T01090043  RH  064%=      5-min Rain = 0
KSW1 181420Z 18014KT 11/04 A2988 RMK A01 T01100044  RH  063%=      5-min Rain = 0
KSW1 181421Z 18014KT 11/04 A2988 RMK A01 T01110044  RH  063%=      5-min Rain = 0
KSW1 181422Z 18013KT 11/04 A2988 RMK A01 T01110044  RH  063%=      5-min Rain = 0
KSW1 181423Z 18013KT 11/04 A2988 RMK A01 T01120044  RH  063%=      5-min Rain = 0
KSW1 181424Z 19012KT 11/04 A2989 RMK A01 T01110044  RH  063%=      5-min Rain = 0
KSW1 181425Z 19012KT 11/05 A2989 RMK A01 T01120045  RH  063%=      5-min Rain = 0
KSW1 181426Z 19012KT 11/05 A2989 RMK A01 T01120045  RH  063%=      5-min Rain = 0
KSW1 181427Z 19012KT 11/05 A2989 RMK A01 T01120045  RH  063%=      5-min Rain = 0
KSW1 181428Z 19011KT 11/05 A2989 RMK A01 T01120046  RH  063%=      5-min Rain = 0
KSW1 181429Z 19012KT 11/05 A2988 RMK A01 T01120046  RH  063%=      5-min Rain = 0
KSW1 181430Z 18011KT 11/05 A2988 RMK A01 T01130046  RH  064%=      5-min Rain = 0
KSW1 181431Z 19012KT 11/05 A2988 RMK A01 T01130046  RH  064%=      5-min Rain = 0
KSW1 181432Z 19013KT 11/05 A2988 RMK A01 T01130046  RH  064%=      5-min Rain = 0
KSW1 181433Z 18013KT 11/05 A2988 RMK A01 T01130046  RH  063%=      5-min Rain = 0
KSW1 181434Z 18012KT 11/05 A2988 RMK A01 T01140047  RH  063%=      5-min Rain = 0
KSW1 181435Z 18014KT 12/05 A2988 RMK A01 T01150047  RH  063%=      5-min Rain = 0
KSW1 181436Z 18013KT 12/05 A2988 RMK A01 T01160047  RH  063%=      5-min Rain = 0
KSW1 181437Z 18012KT 12/05 A2988 RMK A01 T01160048  RH  063%=      5-min Rain = 0
KSW1 181438Z 19013KT 12/05 A2988 RMK A01 T01170048  RH  063%=      5-min Rain = 0
KSW1 181439Z 18013KT 12/05 A2988 RMK A01 T01180048  RH  062%=      5-min Rain = 0
KSW1 181440Z 19012KT 12/05 A2988 RMK A01 T01180048  RH  062%=      5-min Rain = 0
KSW1 181441Z 19013KT 12/05 A2988 RMK A01 T01180049  RH  063%=      5-min Rain = 0
KSW1 181442Z 19014KT 12/05 A2988 RMK A01 T01190049  RH  062%=      5-min Rain = 0
KSW1 181443Z 19012KT 12/05 A2988 RMK A01 T01200050  RH  062%=      5-min Rain = 0
KSW1 181444Z 19015KT 12/05 A2988 RMK A01 T01210050  RH  062%=      5-min Rain = 0
KSW1 181445Z 19014KT 12/05 A2988 RMK A01 T01210049  RH  061%=      5-min Rain = 0
KSW1 181446Z 19016KT 12/05 A2988 RMK A01 T01220050  RH  061%=      5-min Rain = 0
KSW1 181447Z 19013KT 12/05 A2988 RMK A01 T01230050  RH  061%=      5-min Rain = 0
KSW1 181448Z 19013KT 12/05 A2988 RMK A01 T01240051  RH  061%=      5-min Rain = 0
KSW1 181449Z 19013KT 12/05 A2988 RMK A01 T01230051  RH  061%=      5-min Rain = 0
KSW1 181450Z 19013KT 12/05 A2988 RMK A01 T01230051  RH  061%=      5-min Rain = 0
KSW1 181451Z 19013KT 12/05 A2988 RMK A01 T01220051  RH  062%=      5-min Rain = 0
KSW1 181452Z 19013KT 12/05 A2988 RMK A01 T01210050  RH  062%=      5-min Rain = 0
KSW1 181453Z 19014KT 12/05 A2988 RMK A01 T01220051  RH  062%=      5-min Rain = 0
KSW1 181454Z 19013KT 12/05 A2988 RMK A01 T01240052  RH  062%=      5-min Rain = 0
KSW1 181455Z 19014KT 13/05 A2988 RMK A01 T01250052  RH  061%=      5-min Rain = 0
KSW1 181456Z 19014KT 13/05 A2988 RMK A01 T01250052  RH  061%=      5-min Rain = 0
KSW1 181457Z 19012KT 13/05 A2988 RMK A01 T01260053  RH  061%=      5-min Rain = 0
KSW1 181458Z 19013KT 13/05 A2988 RMK A01 T01270054  RH  061%=      5-min Rain = 0
KSW1 181459Z 20015KT 13/05 A2988 RMK A01 T01280053  RH  061%=      5-min Rain = 0
KSW1 181500Z 19015KT 13/05 A2988 RMK A01 T01290053  RH  060%=      5-min Rain = 0
KSW1 181501Z 20014KT 13/05 A2987 RMK A01 T01300053  RH  060%=      5-min Rain = 0
KSW1 181502Z 19015KT 13/05 A2987 RMK A01 T01300054  RH  060%=      5-min Rain = 0
KSW1 181503Z 19015KT 13/05 A2987 RMK A01 T01300054  RH  060%=      5-min Rain = 0
KSW1 181504Z 19013KT 13/06 A2987 RMK A01 T01310055  RH  060%=      5-min Rain = 0
KSW1 181505Z 19015G20KT 13/05 A2987 RMK A01 T01320054  RH  059%=      5-min Rain = 0
KSW1 181506Z 19014G19KT 13/06 A2987 RMK A01 T01330055  RH  059%=      5-min Rain = 0
KSW1 181507Z 19015KT 13/06 A2987 RMK A01 T01340055  RH  059%=      5-min Rain = 0
KSW1 181508Z 19014KT 13/06 A2987 RMK A01 T01340055  RH  059%=      5-min Rain = 0
KSW1 181509Z 19015KT 13/06 A2987 RMK A01 T01340055  RH  059%=      5-min Rain = 0
KSW1 181510Z 19014KT 14/06 A2987 RMK A01 T01350056  RH  059%=      5-min Rain = 0
KSW1 181511Z 19015KT 14/06 A2987 RMK A01 T01360056  RH  059%=      5-min Rain = 0
KSW1 181512Z 20015KT 14/06 A2987 RMK A01 T01360056  RH  058%=      5-min Rain = 0
KSW1 181513Z 20016KT 14/06 A2987 RMK A01 T01370057  RH  058%=      5-min Rain = 0
KSW1 181514Z 20016KT 14/06 A2987 RMK A01 T01370056  RH  058%=      5-min Rain = 0
KSW1 181515Z 20016KT 14/06 A2987 RMK A01 T01380056  RH  058%=      5-min Rain = 0
KSW1 181516Z 20013KT 14/06 A2988 RMK A01 T01380057  RH  058%=      5-min Rain = 0
KSW1 181517Z 20015KT 14/06 A2987 RMK A01 T01390057  RH  058%=      5-min Rain = 0
KSW1 181518Z 20016KT 14/06 A2987 RMK A01 T01400057  RH  057%=      5-min Rain = 0
KSW1 181519Z 19016KT 14/06 A2987 RMK A01 T01400058  RH  058%=      5-min Rain = 0
KSW1 181520Z 20014KT 14/06 A2987 RMK A01 T01410057  RH  057%=      5-min Rain = 0
KSW1 181521Z 20015KT 14/06 A2987 RMK A01 T01410058  RH  057%=      5-min Rain = 0
KSW1 181522Z 20013KT 14/06 A2987 RMK A01 T01420058  RH  057%=      5-min Rain = 0
KSW1 181523Z 20013G19KT 14/06 A2987 RMK A01 T01430059  RH  057%=      5-min Rain = 0
KSW1 181524Z 20015KT 14/06 A2987 RMK A01 T01440058  RH  056%=      5-min Rain = 0
KSW1 181525Z 20014KT 14/06 A2987 RMK A01 T01440060  RH  057%=      5-min Rain = 0
KSW1 181526Z 20013G18KT 15/06 A2987 RMK A01 T01450060  RH  057%=      5-min Rain = 0
KSW1 181527Z 20015KT 15/06 A2988 RMK A01 T01460060  RH  056%=      5-min Rain = 0
KSW1 181528Z 20013KT 15/06 A2988 RMK A01 T01470060  RH  056%=      5-min Rain = 0
KSW1 181529Z 20013KT 15/06 A2988 RMK A01 T01480061  RH  056%=      5-min Rain = 0
KSW1 181530Z 21017G23KT 15/06 A2988 RMK A01 T01500060  RH  055%=      5-min Rain = 0
KSW1 181531Z 20015G21KT 15/06 A2988 RMK A01 T01510059  RH  054%=      5-min Rain = 0
KSW1 181532Z 20017KT 15/06 A2988 RMK A01 T01520060  RH  054%=      5-min Rain = 0
KSW1 181533Z 21017KT 15/06 A2988 RMK A01 T01530060  RH  054%=      5-min Rain = 0
KSW1 181534Z 21018KT 16/06 A2988 RMK A01 T01550060  RH  053%=      5-min Rain = 0
KSW1 181535Z 21018KT 16/06 A2987 RMK A01 T01560059  RH  052%=      5-min Rain = 0
KSW1 181536Z 21018KT 16/06 A2987 RMK A01 T01580059  RH  052%=      5-min Rain = 0
KSW1 181537Z 21019G25KT 16/06 A2987 RMK A01 T01590058  RH  051%=      5-min Rain = 0
KSW1 181538Z 21018KT 16/06 A2987 RMK A01 T01590058  RH  051%=      5-min Rain = 0
KSW1 181539Z 21015KT 16/06 A2987 RMK A01 T01600059  RH  051%=      5-min Rain = 0
KSW1 181540Z 20014G19KT 16/06 A2987 RMK A01 T01610061  RH  052%=      5-min Rain = 0
KSW1 181541Z 20018KT 16/06 A2987 RMK A01 T01610060  RH  051%=      5-min Rain = 0
KSW1 181542Z 20017G22KT 16/06 A2987 RMK A01 T01610060  RH  051%=      5-min Rain = 0
KSW1 181543Z 21019G24KT 16/06 A2987 RMK A01 T01610061  RH  052%=      5-min Rain = 0
KSW1 181544Z 21018G23KT 16/06 A2987 RMK A01 T01610059  RH  051%=      5-min Rain = 0
KSW1 181545Z 20017KT 16/06 A2987 RMK A01 T01610060  RH  051%=      5-min Rain = 0
KSW1 181546Z 20017KT 16/06 A2987 RMK A01 T01620060  RH  051%=      5-min Rain = 0
KSW1 181547Z 20014KT 16/06 A2987 RMK A01 T01630062  RH  051%=      5-min Rain = 0
KSW1 181548Z 20019KT 16/06 A2987 RMK A01 T01640061  RH  050%=      5-min Rain = 0
KSW1 181549Z 20015KT 16/06 A2987 RMK A01 T01640062  RH  051%=      5-min Rain = 0
KSW1 181550Z 21014KT 17/06 A2987 RMK A01 T01650062  RH  051%=      5-min Rain = 0
KSW1 181551Z 21017G22KT 17/06 A2987 RMK A01 T01670060  RH  049%=      5-min Rain = 0
KSW1 181552Z 21019G24KT 17/06 A2987 RMK A01 T01670061  RH  050%=      5-min Rain = 0
KSW1 181553Z 20022KT 17/06 A2987 RMK A01 T01680059  RH  049%=      5-min Rain = 0
KSW1 181554Z 21018KT 17/06 A2987 RMK A01 T01680059  RH  049%=      5-min Rain = 0
KSW1 181555Z 21018KT 17/06 A2987 RMK A01 T01690061  RH  049%=      5-min Rain = 0
KSW1 181556Z 21018KT 17/06 A2987 RMK A01 T01700061  RH  048%=      5-min Rain = 0
KSW1 181557Z 21017KT 17/06 A2987 RMK A01 T01710062  RH  049%=      5-min Rain = 0
KSW1 181558Z 22018G23KT 17/06 A2987 RMK A01 T01720061  RH  048%=      5-min Rain = 0
KSW1 181559Z 21019KT 17/06 A2987 RMK A01 T01730059  RH  047%=      5-min Rain = 0
KSW1 181600Z 22017KT 17/06 A2987 RMK A01 T01720060  RH  048%=      5-min Rain = 0
KSW1 181601Z 22017KT 17/06 A2987 RMK A01 T01710059  RH  048%=      5-min Rain = 0
KSW1 181602Z 21015KT 17/06 A2987 RMK A01 T01700060  RH  048%=      5-min Rain = 0
KSW1 181603Z 21016G21KT 17/06 A2987 RMK A01 T01690060  RH  049%=      5-min Rain = 0
KSW1 181604Z 21017KT 17/06 A2987 RMK A01 T01680059  RH  049%=      5-min Rain = 0
KSW1 181605Z 21016KT 17/06 A2987 RMK A01 T01670060  RH  049%=      5-min Rain = 0
KSW1 181606Z 21019KT 17/06 A2987 RMK A01 T01660059  RH  049%=      5-min Rain = 0
KSW1 181607Z 22017KT 17/06 A2988 RMK A01 T01660059  RH  049%=      5-min Rain = 0
KSW1 181608Z 22016KT 17/06 A2988 RMK A01 T01660061  RH  050%=      5-min Rain = 0
KSW1 181609Z 22015KT 17/06 A2988 RMK A01 T01650061  RH  050%=      5-min Rain = 0
KSW1 181610Z 22015G20KT 17/06 A2988 RMK A01 T01650060  RH  050%=      5-min Rain = 0
KSW1 181611Z 22015KT 17/06 A2988 RMK A01 T01650060  RH  050%=      5-min Rain = 0
KSW1 181612Z 22013G18KT 17/06 A2988 RMK A01 T01650061  RH  050%=      5-min Rain = 0
KSW1 181613Z 22016KT 17/06 A2988 RMK A01 T01650061  RH  050%=      5-min Rain = 0
KSW1 181614Z 22013KT 17/06 A2988 RMK A01 T01650060  RH  050%=      5-min Rain = 0
KSW1 181615Z 22014G19KT 17/06 A2987 RMK A01 T01650061  RH  050%=      5-min Rain = 0
KSW1 181616Z 22015KT 17/06 A2988 RMK A01 T01660059  RH  049%=      5-min Rain = 0
KSW1 181617Z 22016KT 17/06 A2988 RMK A01 T01650059  RH  049%=      5-min Rain = 0
KSW1 181618Z 22014G19KT 17/06 A2987 RMK A01 T01660059  RH  049%=      5-min Rain = 0
KSW1 181619Z 22017G22KT 17/06 A2988 RMK A01 T01650059  RH  049%=      5-min Rain = 0
KSW1 181620Z 22018G23KT 17/06 A2987 RMK A01 T01660059  RH  049%=      5-min Rain = 0
KSW1 181621Z 22016G21KT 17/06 A2988 RMK A01 T01670060  RH  049%=      5-min Rain = 0
KSW1 181622Z 22014KT 17/06 A2988 RMK A01 T01680060  RH  049%=      5-min Rain = 0
KSW1 181623Z 22016KT 17/06 A2988 RMK A01 T01690061  RH  049%=      5-min Rain = 0
KSW1 181624Z 22018KT 17/06 A2988 RMK A01 T01690059  RH  048%=      5-min Rain = 0
KSW1 181625Z 22014G21KT 17/06 A2988 RMK A01 T01680060  RH  049%=      5-min Rain = 0
KSW1 181626Z 22016KT 17/06 A2988 RMK A01 T01670059  RH  049%=      5-min Rain = 0
KSW1 181627Z 22017KT 17/06 A2988 RMK A01 T01660060  RH  050%=      5-min Rain = 0
KSW1 181628Z 22015G20KT 17/06 A2988 RMK A01 T01650061  RH  050%=      5-min Rain = 0
KSW1 181629Z 22015KT 17/06 A2988 RMK A01 T01650061  RH  050%=      5-min Rain = 0
KSW1 181630Z 22016G21KT 17/06 A2988 RMK A01 T01660061  RH  050%=      5-min Rain = 0
KSW1 181631Z 22016KT 17/06 A2988 RMK A01 T01670061  RH  049%=      5-min Rain = 0
KSW1 181632Z 22017KT 17/06 A2988 RMK A01 T01680060  RH  049%=      5-min Rain = 0
KSW1 181633Z 22016KT 17/06 A2988 RMK A01 T01680058  RH  048%=      5-min Rain = 0
KSW1 181634Z 22016KT 17/06 A2988 RMK A01 T01680059  RH  049%=      5-min Rain = 0
KSW1 181635Z 22017KT 17/06 A2988 RMK A01 T01680059  RH  048%=      5-min Rain = 0
KSW1 181636Z 22015G20KT 17/06 A2988 RMK A01 T01690059  RH  048%=      5-min Rain = 0
KSW1 181637Z 22016G21KT 17/06 A2988 RMK A01 T01720062  RH  048%=      5-min Rain = 0
KSW1 181638Z 22014G20KT 17/06 A2988 RMK A01 T01740061  RH  047%=      5-min Rain = 0
KSW1 181639Z 21015KT 18/06 A2988 RMK A01 T01750062  RH  047%=      5-min Rain = 0
KSW1 181640Z 22017G22KT 18/06 A2988 RMK A01 T01770062  RH  047%=      5-min Rain = 0
KSW1 181641Z 22019KT 18/06 A2988 RMK A01 T01760059  RH  046%=      5-min Rain = 0
KSW1 181642Z 22016G21KT 18/06 A2988 RMK A01 T01760062  RH  047%=      5-min Rain = 0
KSW1 181643Z 22017KT 18/06 A2988 RMK A01 T01770061  RH  046%=      5-min Rain = 0
KSW1 181644Z 22018KT 18/06 A2987 RMK A01 T01780059  RH  046%=      5-min Rain = 0
KSW1 181645Z 21018KT 18/06 A2987 RMK A01 T01780058  RH  045%=      5-min Rain = 0
KSW1 181646Z 21015KT 18/06 A2987 RMK A01 T01780059  RH  045%=      5-min Rain = 0
KSW1 181647Z 22017G23KT 18/06 A2987 RMK A01 T01790060  RH  045%=      5-min Rain = 0
KSW1 181648Z 21015G21KT 18/06 A2987 RMK A01 T01800058  RH  045%=      5-min Rain = 0
KSW1 181649Z 21017KT 18/06 A2987 RMK A01 T01800059  RH  045%=      5-min Rain = 0
KSW1 181650Z 21018KT 18/06 A2987 RMK A01 T01810059  RH  045%=      5-min Rain = 0
KSW1 181651Z 22019KT 18/06 A2987 RMK A01 T01810059  RH  045%=      5-min Rain = 0
KSW1 181652Z 22020KT 18/06 A2987 RMK A01 T01810057  RH  044%=      5-min Rain = 0
KSW1 181653Z 22018KT 18/06 A2987 RMK A01 T01800059  RH  045%=      5-min Rain = 0
KSW1 181654Z 22017G22KT 18/06 A2987 RMK A01 T01810058  RH  044%=      5-min Rain = 0
KSW1 181655Z 22018KT 18/06 A2987 RMK A01 T01820058  RH  044%=      5-min Rain = 0
KSW1 181656Z 22016KT 18/06 A2987 RMK A01 T01830059  RH  044%=      5-min Rain = 0
KSW1 181657Z 21018KT 18/06 A2986 RMK A01 T01830056  RH  043%=      5-min Rain = 0
KSW1 181658Z 22017KT 18/06 A2986 RMK A01 T01840056  RH  043%=      5-min Rain = 0
KSW1 181659Z 22019KT 19/06 A2986 RMK A01 T01850057  RH  043%=      5-min Rain = 0
KSW1 181700Z 23016KT 19/06 A2986 RMK A01 T01850058  RH  043%=      5-min Rain = 0
KSW1 181701Z 23017KT 19/06 A2986 RMK A01 T01850057  RH  043%=      5-min Rain = 0
KSW1 181702Z 22015KT 19/06 A2986 RMK A01 T01860057  RH  043%=      5-min Rain = 0
KSW1 181703Z 22017KT 19/06 A2986 RMK A01 T01870059  RH  043%=      5-min Rain = 0
KSW1 181704Z 22016G25KT 19/06 A2986 RMK A01 T01880060  RH  043%=      5-min Rain = 0
KSW1 181705Z 23020G26KT 19/06 A2986 RMK A01 T01880059  RH  043%=      5-min Rain = 0
KSW1 181706Z 23018KT 19/06 A2986 RMK A01 T01870057  RH  043%=      5-min Rain = 0
KSW1 181707Z 23016G21KT 19/06 A2986 RMK A01 T01860059  RH  043%=      5-min Rain = 0
KSW1 181708Z 22015G21KT 19/06 A2986 RMK A01 T01870061  RH  044%=      5-min Rain = 0
KSW1 181709Z 22019KT 19/06 A2986 RMK A01 T01890060  RH  043%=      5-min Rain = 0
KSW1 181710Z 22021KT 19/06 A2986 RMK A01 T01890059  RH  043%=      5-min Rain = 0
KSW1 181711Z 22022KT 19/06 A2986 RMK A01 T01870057  RH  042%=      5-min Rain = 0
KSW1 181712Z 22018KT 19/06 A2986 RMK A01 T01870058  RH  043%=      5-min Rain = 0
KSW1 181713Z 23014G19KT 19/06 A2986 RMK A01 T01880060  RH  043%=      5-min Rain = 0
KSW1 181714Z 23017G23KT 19/06 A2986 RMK A01 T01900059  RH  042%=      5-min Rain = 0
KSW1 181715Z 22021G26KT 19/06 A2985 RMK A01 T01910056  RH  041%=      5-min Rain = 0
KSW1 181716Z 22017G22KT 19/06 A2985 RMK A01 T01900057  RH  042%=      5-min Rain = 0
KSW1 181717Z 22018G23KT 19/06 A2985 RMK A01 T01900057  RH  042%=      5-min Rain = 0
KSW1 181718Z 22018KT 19/06 A2985 RMK A01 T01910056  RH  041%=      5-min Rain = 0
KSW1 181719Z 22019G24KT 19/06 A2985 RMK A01 T01910058  RH  042%=      5-min Rain = 0
KSW1 181720Z 22019G24KT 19/06 A2985 RMK A01 T01910060  RH  042%=      5-min Rain = 0
KSW1 181721Z 23018KT 19/06 A2985 RMK A01 T01910058  RH  042%=      5-min Rain = 0
KSW1 181722Z 23018KT 19/06 A2985 RMK A01 T01910060  RH  042%=      5-min Rain = 0
KSW1 181723Z 22018KT 19/06 A2985 RMK A01 T01910059  RH  042%=      5-min Rain = 0
KSW1 181724Z 23020KT 19/05 A2985 RMK A01 T01930053  RH  040%=      5-min Rain = 0
KSW1 181725Z 23025KT 19/05 A2985 RMK A01 T01940050  RH  039%=      5-min Rain = 0
KSW1 181726Z 23021KT 19/05 A2985 RMK A01 T01940050  RH  039%=      5-min Rain = 0
KSW1 181727Z 23021G28KT 20/05 A2985 RMK A01 T01950051  RH  039%=      5-min Rain = 0
KSW1 181728Z 23022G27KT 20/05 A2985 RMK A01 T01950053  RH  039%=      5-min Rain = 0
KSW1 181729Z 23020KT 20/06 A2985 RMK A01 T01950055  RH  040%=      5-min Rain = 0
KSW1 181730Z 23018KT 20/05 A2985 RMK A01 T01950054  RH  040%=      5-min Rain = 0
KSW1 181731Z 23022G28KT 20/05 A2985 RMK A01 T01970054  RH  039%=      5-min Rain = 0
KSW1 181732Z 22020KT 20/05 A2985 RMK A01 T01970052  RH  039%=      5-min Rain = 0
KSW1 181733Z 22019G26KT 20/06 A2985 RMK A01 T01970055  RH  039%=      5-min Rain = 0
KSW1 181734Z 22023KT 20/05 A2985 RMK A01 T01980053  RH  038%=      5-min Rain = 0
KSW1 181735Z 22021KT 20/05 A2985 RMK A01 T01970053  RH  039%=      5-min Rain = 0
KSW1 181736Z 23019G24KT 20/05 A2985 RMK A01 T01970054  RH  039%=      5-min Rain = 0
KSW1 181737Z 22017G25KT 20/06 A2985 RMK A01 T01970056  RH  039%=      5-min Rain = 0
KSW1 181738Z 22023G29KT 20/05 A2984 RMK A01 T01990052  RH  038%=      5-min Rain = 0
KSW1 181739Z 23019KT 20/05 A2985 RMK A01 T01990053  RH  038%=      5-min Rain = 0
KSW1 181740Z 23021KT 20/05 A2984 RMK A01 T02000053  RH  038%=      5-min Rain = 0
KSW1 181741Z 23020G26KT 20/05 A2984 RMK A01 T02000052  RH  038%=      5-min Rain = 0
KSW1 181742Z 24023KT 20/05 A2984 RMK A01 T02010051  RH  037%=      5-min Rain = 0
KSW1 181743Z 24021KT 20/05 A2984 RMK A01 T02010050  RH  037%=      5-min Rain = 0
KSW1 181744Z 23023G29KT 20/05 A2984 RMK A01 T02020050  RH  037%=      5-min Rain = 0
KSW1 181745Z 23018G24KT 20/05 A2984 RMK A01 T02020051  RH  037%=      5-min Rain = 0
KSW1 181746Z 23022KT 20/05 A2984 RMK A01 T02040052  RH  037%=      5-min Rain = 0
KSW1 181747Z 23021G30KT 20/05 A2984 RMK A01 T02040050  RH  036%=      5-min Rain = 0
KSW1 181748Z 23021KT 21/05 A2984 RMK A01 T02050048  RH  036%=      5-min Rain = 0
KSW1 181749Z 24021KT 21/05 A2984 RMK A01 T02050049  RH  036%=      5-min Rain = 0
KSW1 181750Z 24020G26KT 21/05 A2983 RMK A01 T02060049  RH  036%=      5-min Rain = 0
KSW1 181751Z 23023KT 21/05 A2983 RMK A01 T02070048  RH  035%=      5-min Rain = 0
KSW1 181752Z 23024KT 21/05 A2983 RMK A01 T02070047  RH  035%=      5-min Rain = 0
KSW1 181753Z 23022KT 21/05 A2983 RMK A01 T02070045  RH  035%=      5-min Rain = 0
KSW1 181754Z 23022KT 21/05 A2983 RMK A01 T02070046  RH  035%=      5-min Rain = 0
KSW1 181755Z 24023G28KT 21/05 A2983 RMK A01 T02090045  RH  034%=      5-min Rain = 0
KSW1 181756Z 23023G30KT 21/05 A2983 RMK A01 T02100045  RH  034%=      5-min Rain = 0
KSW1 181757Z 24021G27KT 21/04 A2983 RMK A01 T02110042  RH  033%=      5-min Rain = 0
KSW1 181758Z 24025G30KT 21/04 A2983 RMK A01 T02110041  RH  033%=      5-min Rain = 0
KSW1 181759Z 23022G33KT 21/04 A2983 RMK A01 T02100042  RH  033%=      5-min Rain = 0
KSW1 181800Z 23020G28KT 21/04 A2983 RMK A01 T02110044  RH  033%=      5-min Rain = 0
KSW1 181801Z 24025G30KT 21/04 A2982 RMK A01 T02120041  RH  032%=      5-min Rain = 0
KSW1 181802Z 24025KT 21/04 A2983 RMK A01 T02110040  RH  032%=      5-min Rain = 0
KSW1 181803Z 23026G31KT 21/04 A2982 RMK A01 T02110038  RH  032%=      5-min Rain = 0
KSW1 181804Z 24024G29KT 21/04 A2982 RMK A01 T02100038  RH  032%=      5-min Rain = 0
KSW1 181805Z 24022G29KT 21/04 A2982 RMK A01 T02100041  RH  033%=      5-min Rain = 0
KSW1 181806Z 24020G25KT 21/04 A2983 RMK A01 T02120041  RH  033%=      5-min Rain = 0
KSW1 181807Z 23022KT 21/04 A2982 RMK A01 T02130041  RH  032%=      5-min Rain = 0
KSW1 181808Z 23026G32KT 21/04 A2982 RMK A01 T02130040  RH  032%=      5-min Rain = 0
KSW1 181809Z 23025KT 21/04 A2982 RMK A01 T02120040  RH  032%=      5-min Rain = 0
KSW1 181810Z 23023G30KT 21/04 A2982 RMK A01 T02110041  RH  033%=      5-min Rain = 0
KSW1 181811Z 23022G29KT 21/04 A2982 RMK A01 T02120040  RH  032%=      5-min Rain = 0
KSW1 181812Z 23023G29KT 21/04 A2982 RMK A01 T02130041  RH  032%=      5-min Rain = 0
KSW1 181813Z 23022KT 21/04 A2982 RMK A01 T02130038  RH  032%=      5-min Rain = 0
KSW1 181814Z 24019G25KT 21/04 A2981 RMK A01 T02130039  RH  032%=      5-min Rain = 0
KSW1 181815Z 24020KT 21/04 A2981 RMK A01 T02140040  RH  032%=      5-min Rain = 0
KSW1 181816Z 23023G29KT 22/04 A2981 RMK A01 T02150038  RH  031%=      5-min Rain = 0
KSW1 181817Z 23019G24KT 22/04 A2981 RMK A01 T02150040  RH  032%=      5-min Rain = 0
KSW1 181818Z 22023KT 22/04 A2981 RMK A01 T02150040  RH  032%=      5-min Rain = 0
KSW1 181819Z 22021KT 22/04 A2981 RMK A01 T02160041  RH  032%=      5-min Rain = 0
KSW1 181820Z 23023G28KT 22/04 A2981 RMK A01 T02160040  RH  031%=      5-min Rain = 0
KSW1 181821Z 24021KT 22/04 A2981 RMK A01 T02170040  RH  031%=      5-min Rain = 0
KSW1 181822Z 24024KT 22/04 A2981 RMK A01 T02170039  RH  031%=      5-min Rain = 0
KSW1 181823Z 24024G31KT 22/03 A298 RMK A01 T02180029  RH  029%=      5-min Rain = 0
KSW1 181824Z 24019G25KT 22/03 A298 RMK A01 T02180031  RH  029%=      5-min Rain = 0
KSW1 181825Z 24024KT 22/03 A298 RMK A01 T02200032  RH  029%=      5-min Rain = 0
KSW1 181826Z 24023KT 22/03 A298 RMK A01 T02210031  RH  029%=      5-min Rain = 0
KSW1 181827Z 23021G26KT 22/03 A298 RMK A01 T02220030  RH  028%=      5-min Rain = 0
KSW1 181828Z 23025KT 22/03 A298 RMK A01 T02220028  RH  028%=      5-min Rain = 0
KSW1 181829Z 23023G28KT 22/03 A298 RMK A01 T02220028  RH  028%=      5-min Rain = 0
KSW1 181830Z 23023G28KT 22/03 A298 RMK A01 T02210028  RH  028%=      5-min Rain = 0
KSW1 181831Z 23025G31KT 22/03 A2979 RMK A01 T02220027  RH  028%=      5-min Rain = 0
KSW1 181832Z 24024G33KT 22/02 A298 RMK A01 T02220023  RH  027%=      5-min Rain = 0
KSW1 181833Z 25023KT 22/03 A2979 RMK A01 T02220025  RH  027%=      5-min Rain = 0
KSW1 181834Z 24022KT 22/02 A2979 RMK A01 T02210022  RH  027%=      5-min Rain = 0
KSW1 181835Z 24020G25KT 22/02 A2979 RMK A01 T02200024  RH  028%=      5-min Rain = 0
KSW1 181836Z 24020G28KT 22/03 A2979 RMK A01 T02210028  RH  028%=      5-min Rain = 0
KSW1 181837Z 24022G31KT 22/03 A2979 RMK A01 T02230026  RH  027%=      5-min Rain = 0
KSW1 181838Z 24023G28KT 22/02 A2979 RMK A01 T02240023  RH  027%=      5-min Rain = 0
KSW1 181839Z 23024G29KT 22/02 A2979 RMK A01 T02230024  RH  027%=      5-min Rain = 0
KSW1 181840Z 23019G25KT 22/03 A2979 RMK A01 T02210026  RH  028%=      5-min Rain = 0
KSW1 181841Z 24018G25KT 22/03 A2979 RMK A01 T02190025  RH  028%=      5-min Rain = 0
KSW1 181842Z 23021G27KT 22/03 A2978 RMK A01 T02190026  RH  028%=      5-min Rain = 0
KSW1 181843Z 23023KT 22/02 A2978 RMK A01 T02190023  RH  028%=      5-min Rain = 0
KSW1 181844Z 24025G32KT 22/03 A2978 RMK A01 T02180025  RH  028%=      5-min Rain = 0
KSW1 181845Z 24025G30KT 22/02 A2978 RMK A01 T02180023  RH  028%=      5-min Rain = 0
KSW1 181846Z 24022G29KT 22/02 A2978 RMK A01 T02170024  RH  028%=      5-min Rain = 0
KSW1 181847Z 24020KT 22/02 A2978 RMK A01 T02170024  RH  028%=      5-min Rain = 0
KSW1 181848Z 23021G28KT 22/03 A2978 RMK A01 T02180025  RH  028%=      5-min Rain = 0
KSW1 181849Z 24021G31KT 22/03 A2978 RMK A01 T02190027  RH  028%=      5-min Rain = 0
KSW1 181850Z 23022G31KT 22/02 A2977 RMK A01 T02180024  RH  028%=      5-min Rain = 0
KSW1 181851Z 23022G29KT 22/03 A2977 RMK A01 T02160025  RH  028%=      5-min Rain = 0
KSW1 181852Z 23022KT 22/03 A2977 RMK A01 T02160025  RH  028%=      5-min Rain = 0
KSW1 181853Z 23021G28KT 22/03 A2977 RMK A01 T02160025  RH  028%=      5-min Rain = 0
KSW1 181854Z 22022G27KT 22/03 A2977 RMK A01 T02160025  RH  028%=      5-min Rain = 0
KSW1 181855Z 23020G27KT 22/03 A2977 RMK A01 T02160027  RH  029%=      5-min Rain = 0
KSW1 181856Z 23023G29KT 22/03 A2977 RMK A01 T02160025  RH  028%=      5-min Rain = 0
KSW1 181857Z 23022KT 22/03 A2977 RMK A01 T02160026  RH  029%=      5-min Rain = 0
KSW1 181858Z 24022G29KT 22/03 A2977 RMK A01 T02150026  RH  029%=      5-min Rain = 0
KSW1 181859Z 23020G26KT 22/03 A2977 RMK A01 T02160028  RH  029%=      5-min Rain = 0
KSW1 181900Z 23024G29KT 22/03 A2977 RMK A01 T02170027  RH  029%=      5-min Rain = 0
KSW1 181901Z 23023G28KT 22/02 A2976 RMK A01 T02160024  RH  028%=      5-min Rain = 0
KSW1 181902Z 24024G30KT 21/02 A2976 RMK A01 T02140023  RH  028%=      5-min Rain = 0
KSW1 181903Z 23017G22KT 21/03 A2977 RMK A01 T02130026  RH  029%=      5-min Rain = 0
KSW1 181904Z 22020G27KT 21/03 A2977 RMK A01 T02130027  RH  029%=      5-min Rain = 0
KSW1 181905Z 23025G30KT 21/03 A2977 RMK A01 T02130025  RH  029%=      5-min Rain = 0
KSW1 181906Z 23023G29KT 21/02 A2977 RMK A01 T02120024  RH  029%=      5-min Rain = 0
KSW1 181907Z 23022G29KT 21/03 A2976 RMK A01 T02120025  RH  029%=      5-min Rain = 0
KSW1 181908Z 23025KT 21/03 A2976 RMK A01 T02120026  RH  029%=      5-min Rain = 0
KSW1 181909Z 22022G27KT 21/03 A2976 RMK A01 T02120026  RH  029%=      5-min Rain = 0
KSW1 181910Z 23022KT 21/02 A2976 RMK A01 T02120024  RH  029%=      5-min Rain = 0
KSW1 181911Z 23020KT 21/03 A2976 RMK A01 T02130025  RH  029%=      5-min Rain = 0
KSW1 181912Z 23021G26KT 21/03 A2976 RMK A01 T02130026  RH  029%=      5-min Rain = 0
KSW1 181913Z 23024KT 21/03 A2976 RMK A01 T02140025  RH  029%=      5-min Rain = 0
KSW1 181914Z 23022G30KT 21/03 A2976 RMK A01 T02140025  RH  029%=      5-min Rain = 0
KSW1 181915Z 22022G27KT 21/03 A2975 RMK A01 T02140025  RH  029%=      5-min Rain = 0
KSW1 181916Z 23021KT 21/03 A2976 RMK A01 T02140027  RH  029%=      5-min Rain = 0
KSW1 181917Z 23021G27KT 22/03 A2976 RMK A01 T02150027  RH  029%=      5-min Rain = 0
KSW1 181918Z 23018KT 22/03 A2976 RMK A01 T02150029  RH  029%=      5-min Rain = 0
KSW1 181919Z 23020G25KT 22/03 A2976 RMK A01 T02180030  RH  029%=      5-min Rain = 0
KSW1 181920Z 24019G25KT 22/03 A2976 RMK A01 T02210030  RH  028%=      5-min Rain = 0
KSW1 181921Z 24015KT 22/03 A2976 RMK A01 T02230031  RH  028%=      5-min Rain = 0
KSW1 181922Z 23020G26KT 22/03 A2975 RMK A01 T02240033  RH  028%=      5-min Rain = 0
KSW1 181923Z 23021G27KT 23/03 A2975 RMK A01 T02250028  RH  027%=      5-min Rain = 0
KSW1 181924Z 23021G27KT 22/03 A2975 RMK A01 T02240030  RH  028%=      5-min Rain = 0
KSW1 181925Z 23024KT 22/03 A2975 RMK A01 T02220025  RH  027%=      5-min Rain = 0
KSW1 181926Z 23021G28KT 22/03 A2975 RMK A01 T02200026  RH  028%=      5-min Rain = 0
KSW1 181927Z 24020G25KT 22/03 A2976 RMK A01 T02190029  RH  029%=      5-min Rain = 0
KSW1 181928Z 24023G30KT 22/03 A2975 RMK A01 T02200027  RH  028%=      5-min Rain = 0
KSW1 181929Z 24019KT 22/03 A2975 RMK A01 T02200027  RH  028%=      5-min Rain = 0
KSW1 181930Z 24016KT 22/03 A2975 RMK A01 T02220032  RH  029%=      5-min Rain = 0
KSW1 181931Z 24020G26KT 23/03 A2975 RMK A01 T02250032  RH  028%=      5-min Rain = 0
KSW1 181932Z 24022KT 22/03 A2975 RMK A01 T02240026  RH  027%=      5-min Rain = 0
KSW1 181933Z 24019KT 22/03 A2975 RMK A01 T02220026  RH  028%=      5-min Rain = 0
KSW1 181934Z 24023G29KT 22/03 A2975 RMK A01 T02210028  RH  028%=      5-min Rain = 0
KSW1 181935Z 24018G24KT 22/03 A2975 RMK A01 T02210028  RH  028%=      5-min Rain = 0
KSW1 181936Z 24017G23KT 22/03 A2975 RMK A01 T02210029  RH  028%=      5-min Rain = 0
KSW1 181937Z 24019KT 22/03 A2975 RMK A01 T02210028  RH  028%=      5-min Rain = 0
KSW1 181938Z 25020G28KT 22/03 A2975 RMK A01 T02190028  RH  028%=      5-min Rain = 0
KSW1 181939Z 24023KT 22/02 A2975 RMK A01 T02180024  RH  028%=      5-min Rain = 0
KSW1 181940Z 24022G30KT 22/03 A2975 RMK A01 T02170026  RH  028%=      5-min Rain = 0
KSW1 181941Z 24024G30KT 22/03 A2975 RMK A01 T02170026  RH  028%=      5-min Rain = 0
KSW1 181942Z 25023G30KT 22/02 A2975 RMK A01 T02170024  RH  028%=      5-min Rain = 0
KSW1 181943Z 24022G29KT 22/03 A2975 RMK A01 T02160025  RH  028%=      5-min Rain = 0
KSW1 181944Z 24023G29KT 22/03 A2974 RMK A01 T02150025  RH  029%=      5-min Rain = 0
KSW1 181945Z 24021G27KT 22/03 A2974 RMK A01 T02150026  RH  029%=      5-min Rain = 0
KSW1 181946Z 24018KT 22/03 A2974 RMK A01 T02150026  RH  029%=      5-min Rain = 0
KSW1 181947Z 24022G27KT 22/03 A2974 RMK A01 T02150027  RH  029%=      5-min Rain = 0
KSW1 181948Z 25020G26KT 22/02 A2974 RMK A01 T02150024  RH  028%=      5-min Rain = 0
KSW1 181949Z 24017G22KT 22/03 A2973 RMK A01 T02160026  RH  029%=      5-min Rain = 0
KSW1 181950Z 24020KT 22/03 A2973 RMK A01 T02160027  RH  029%=      5-min Rain = 0
KSW1 181951Z 24024G30KT 22/03 A2973 RMK A01 T02160026  RH  029%=      5-min Rain = 0
KSW1 181952Z 25021KT 22/03 A2973 RMK A01 T02160026  RH  029%=      5-min Rain = 0
KSW1 181953Z 24021G26KT 22/03 A2973 RMK A01 T02150026  RH  029%=      5-min Rain = 0
KSW1 181954Z 25023KT 22/03 A2973 RMK A01 T02160025  RH  028%=      5-min Rain = 0
KSW1 181955Z 25019KT 22/03 A2973 RMK A01 T02150027  RH  029%=      5-min Rain = 0
KSW1 181956Z 25018KT 22/03 A2973 RMK A01 T02160029  RH  029%=      5-min Rain = 0
KSW1 181957Z 25020G25KT 22/03 A2973 RMK A01 T02160026  RH  029%=      5-min Rain = 0
KSW1 181958Z 25019G26KT 22/03 A2973 RMK A01 T02160026  RH  028%=      5-min Rain = 0
KSW1 181959Z 26022G27KT 22/02 A2973 RMK A01 T02170024  RH  028%=      5-min Rain = 0
KSW1 182000Z 25022G27KT 22/02 A2973 RMK A01 T02180023  RH  028%=      5-min Rain = 0
KSW1 182001Z 25020KT 22/03 A2973 RMK A01 T02190025  RH  028%=      5-min Rain = 0
KSW1 182002Z 25024KT 22/02 A2972 RMK A01 T02210022  RH  027%=      5-min Rain = 0
KSW1 182003Z 25023KT 22/02 A2972 RMK A01 T02220020  RH  027%=      5-min Rain = 0
KSW1 182004Z 25024G30KT 22/02 A2972 RMK A01 T02230019  RH  026%=      5-min Rain = 0
KSW1 182005Z 25023KT 22/02 A2972 RMK A01 T02230020  RH  026%=      5-min Rain = 0
KSW1 182006Z 25024G32KT 22/02 A2972 RMK A01 T02220019  RH  026%=      5-min Rain = 0
KSW1 182007Z 25022G31KT 22/02 A2972 RMK A01 T02210016  RH  026%=      5-min Rain = 0
KSW1 182008Z 25022G28KT 22/02 A2972 RMK A01 T02200017  RH  026%=      5-min Rain = 0
KSW1 182009Z 25024G30KT 22/02 A2972 RMK A01 T02200015  RH  026%=      5-min Rain = 0
KSW1 182010Z 25025G31KT 22/01 A2972 RMK A01 T02180013  RH  026%=      5-min Rain = 0
KSW1 182011Z 25018G23KT 22/02 A2972 RMK A01 T02170015  RH  026%=      5-min Rain = 0
KSW1 182012Z 26018KT 22/02 A2972 RMK A01 T02160016  RH  027%=      5-min Rain = 0
KSW1 182013Z 26019KT 22/02 A2972 RMK A01 T02160016  RH  027%=      5-min Rain = 0
KSW1 182014Z 26017G22KT 22/02 A2972 RMK A01 T02150015  RH  027%=      5-min Rain = 0
KSW1 182015Z 26019KT 22/01 A2972 RMK A01 T02150014  RH  026%=      5-min Rain = 0
KSW1 182016Z 26021G26KT 21/01 A2972 RMK A01 T02140012  RH  026%=      5-min Rain = 0
KSW1 182017Z 26015G21KT 21/01 A2972 RMK A01 T02130013  RH  026%=      5-min Rain = 0
KSW1 182018Z 26021G26KT 21/01 A2972 RMK A01 T02120013  RH  027%=      5-min Rain = 0
KSW1 182019Z 25023G29KT 21/01 A2972 RMK A01 T02110011  RH  026%=      5-min Rain = 0
KSW1 182020Z 26022KT 21/01 A2972 RMK A01 T02110011  RH  026%=      5-min Rain = 0
KSW1 182021Z 26021KT 21/01 A2972 RMK A01 T02100012  RH  027%=      5-min Rain = 0
KSW1 182022Z 26020G26KT 21/01 A2972 RMK A01 T02100011  RH  027%=      5-min Rain = 0
KSW1 182023Z 26017G22KT 21/01 A2972 RMK A01 T02090010  RH  027%=      5-min Rain = 0
KSW1 182024Z 26018G23KT 21/01 A2972 RMK A01 T02090012  RH  027%=      5-min Rain = 0
KSW1 182025Z 26023G30KT 21/01 A2972 RMK A01 T02090011  RH  027%=      5-min Rain = 0
KSW1 182026Z 26022KT 21/01 A2972 RMK A01 T02090009  RH  027%=      5-min Rain = 0
KSW1 182027Z 25024G30KT 21/01 A2972 RMK A01 T02090009  RH  026%=      5-min Rain = 0
KSW1 182028Z 25023G28KT 21/01 A2972 RMK A01 T02080009  RH  027%=      5-min Rain = 0
KSW1 182029Z 25019KT 21/01 A2972 RMK A01 T02080011  RH  027%=      5-min Rain = 0
KSW1 182030Z 25020G25KT 21/01 A2972 RMK A01 T02080013  RH  027%=      5-min Rain = 0
KSW1 182031Z 25021KT 21/01 A2972 RMK A01 T02080014  RH  027%=      5-min Rain = 0
KSW1 182032Z 25017G22KT 21/01 A2972 RMK A01 T02080014  RH  027%=      5-min Rain = 0
KSW1 182033Z 25016KT 21/02 A2972 RMK A01 T02080016  RH  028%=      5-min Rain = 0
KSW1 182034Z 26019KT 21/01 A2972 RMK A01 T02080014  RH  028%=      5-min Rain = 0
KSW1 182035Z 25018KT 21/01 A2972 RMK A01 T02080014  RH  028%=      5-min Rain = 0
KSW1 182036Z 25018KT 21/01 A2972 RMK A01 T02080014  RH  028%=      5-min Rain = 0
KSW1 182037Z 25017G22KT 21/02 A2972 RMK A01 T02080015  RH  028%=      5-min Rain = 0
KSW1 182038Z 25017G23KT 21/02 A2972 RMK A01 T02090017  RH  028%=      5-min Rain = 0
KSW1 182039Z 26015KT 21/02 A2972 RMK A01 T02090016  RH  028%=      5-min Rain = 0
KSW1 182040Z 25016KT 21/02 A2972 RMK A01 T02090018  RH  028%=      5-min Rain = 0
KSW1 182041Z 25017KT 21/02 A2972 RMK A01 T02100017  RH  028%=      5-min Rain = 0
KSW1 182042Z 26015G20KT 21/02 A2972 RMK A01 T02100018  RH  028%=      5-min Rain = 0
KSW1 182043Z 26014KT 21/02 A2971 RMK A01 T02110021  RH  029%=      5-min Rain = 0
KSW1 182044Z 26020KT 21/02 A2971 RMK A01 T02110016  RH  028%=      5-min Rain = 0
KSW1 182045Z 26020G26KT 21/02 A2971 RMK A01 T02110015  RH  027%=      5-min Rain = 0
KSW1 182046Z 26020G25KT 21/02 A2971 RMK A01 T02100015  RH  027%=      5-min Rain = 0
KSW1 182047Z 26020G27KT 21/02 A2971 RMK A01 T02100016  RH  028%=      5-min Rain = 0
KSW1 182048Z 26019KT 21/01 A2971 RMK A01 T02100014  RH  027%=      5-min Rain = 0
KSW1 182049Z 26020G26KT 21/02 A2971 RMK A01 T02100016  RH  028%=      5-min Rain = 0
KSW1 182050Z 25018G25KT 21/02 A2971 RMK A01 T02100015  RH  027%=      5-min Rain = 0
KSW1 182051Z 25019KT 21/02 A2971 RMK A01 T02100016  RH  028%=      5-min Rain = 0
KSW1 182052Z 25019G24KT 21/02 A2971 RMK A01 T02100015  RH  027%=      5-min Rain = 0
KSW1 182053Z 25020KT 21/02 A297 RMK A01 T02100015  RH  027%=      5-min Rain = 0
KSW1 182054Z 25018G23KT 21/02 A297 RMK A01 T02100015  RH  028%=      5-min Rain = 0
KSW1 182055Z 25020KT 21/02 A297 RMK A01 T02100015  RH  027%=      5-min Rain = 0
KSW1 182056Z 25019KT 21/01 A297 RMK A01 T02110014  RH  027%=      5-min Rain = 0
KSW1 182057Z 25018KT 21/02 A297 RMK A01 T02110015  RH  027%=      5-min Rain = 0
KSW1 182058Z 25017G24KT 21/02 A297 RMK A01 T02110017  RH  028%=      5-min Rain = 0
KSW1 182059Z 25021G26KT 21/01 A297 RMK A01 T02110014  RH  027%=      5-min Rain = 0
KSW1 182100Z 25020KT 21/02 A297 RMK A01 T02110015  RH  027%=      5-min Rain = 0
KSW1 182101Z 25019KT 21/02 A297 RMK A01 T02110015  RH  027%=      5-min Rain = 0
KSW1 182102Z 24019KT 21/02 A297 RMK A01 T02130016  RH  027%=      5-min Rain = 0
KSW1 182103Z 25020G25KT 21/02 A297 RMK A01 T02140017  RH  027%=      5-min Rain = 0
KSW1 182104Z 25020G27KT 21/02 A297 RMK A01 T02140016  RH  027%=      5-min Rain = 0
KSW1 182105Z 24018G23KT 22/02 A297 RMK A01 T02150017  RH  027%=      5-min Rain = 0
KSW1 182106Z 24018G23KT 22/02 A297 RMK A01 T02150017  RH  027%=      5-min Rain = 0
KSW1 182107Z 25015G21KT 22/02 A297 RMK A01 T02150018  RH  027%=      5-min Rain = 0
KSW1 182108Z 25017G23KT 22/02 A297 RMK A01 T02160018  RH  027%=      5-min Rain = 0
KSW1 182109Z 25014KT 22/02 A297 RMK A01 T02170023  RH  028%=      5-min Rain = 0
KSW1 182110Z 24024G30KT 22/02 A297 RMK A01 T02190018  RH  026%=      5-min Rain = 0
KSW1 182111Z 25019G24KT 22/02 A297 RMK A01 T02190016  RH  026%=      5-min Rain = 0
KSW1 182112Z 25017KT 22/02 A297 RMK A01 T02190017  RH  026%=      5-min Rain = 0
KSW1 182113Z 24022G28KT 22/02 A297 RMK A01 T02180016  RH  026%=      5-min Rain = 0
KSW1 182114Z 24020KT 22/02 A297 RMK A01 T02180016  RH  026%=      5-min Rain = 0
KSW1 182115Z 24018G23KT 22/02 A297 RMK A01 T02180015  RH  026%=      5-min Rain = 0
KSW1 182116Z 23021KT 22/02 A297 RMK A01 T02180016  RH  026%=      5-min Rain = 0
KSW1 182117Z 24021KT 22/02 A297 RMK A01 T02180015  RH  026%=      5-min Rain = 0
KSW1 182118Z 25022KT 22/02 A297 RMK A01 T02180016  RH  026%=      5-min Rain = 0
KSW1 182119Z 25021KT 22/02 A297 RMK A01 T02180016  RH  026%=      5-min Rain = 0
KSW1 182120Z 25021G26KT 22/02 A297 RMK A01 T02190017  RH  026%=      5-min Rain = 0
KSW1 182121Z 25022KT 22/02 A297 RMK A01 T02190016  RH  026%=      5-min Rain = 0
KSW1 182122Z 25020KT 22/02 A297 RMK A01 T02190015  RH  026%=      5-min Rain = 0
KSW1 182123Z 24015G20KT 22/02 A297 RMK A01 T02190016  RH  026%=      5-min Rain = 0
KSW1 182124Z 24014KT 22/02 A297 RMK A01 T02200020  RH  027%=      5-min Rain = 0
KSW1 182125Z 25020G26KT 22/02 A297 RMK A01 T02220018  RH  026%=      5-min Rain = 0
KSW1 182126Z 24022G27KT 22/02 A297 RMK A01 T02210017  RH  026%=      5-min Rain = 0
KSW1 182127Z 25020KT 22/02 A297 RMK A01 T02210017  RH  026%=      5-min Rain = 0
KSW1 182128Z 24021KT 22/02 A297 RMK A01 T02210017  RH  026%=      5-min Rain = 0
KSW1 182129Z 26019G26KT 22/02 A297 RMK A01 T02210018  RH  026%=      5-min Rain = 0
KSW1 182130Z 26020G26KT 22/02 A297 RMK A01 T02210017  RH  026%=      5-min Rain = 0
KSW1 182131Z 25020KT 22/02 A297 RMK A01 T02210017  RH  026%=      5-min Rain = 0
KSW1 182132Z 25022KT 22/02 A297 RMK A01 T02200017  RH  026%=      5-min Rain = 0
KSW1 182133Z 24022G27KT 22/02 A297 RMK A01 T02200016  RH  026%=      5-min Rain = 0
KSW1 182134Z 24021KT 22/02 A297 RMK A01 T02200016  RH  026%=      5-min Rain = 0
KSW1 182135Z 24020G31KT 22/02 A297 RMK A01 T02200017  RH  026%=      5-min Rain = 0
KSW1 182136Z 25023G31KT 22/01 A297 RMK A01 T02200014  RH  026%=      5-min Rain = 0
KSW1 182137Z 25021KT 22/02 A297 RMK A01 T02190016  RH  026%=      5-min Rain = 0
KSW1 182138Z 24018G24KT 22/02 A297 RMK A01 T02180016  RH  026%=      5-min Rain = 0
KSW1 182139Z 24023G28KT 22/02 A297 RMK A01 T02180016  RH  026%=      5-min Rain = 0
KSW1 182140Z 24022KT 22/01 A297 RMK A01 T02180014  RH  026%=      5-min Rain = 0
KSW1 182141Z 25020G28KT 22/02 A297 RMK A01 T02180016  RH  026%=      5-min Rain = 0
KSW1 182142Z 25021KT 22/02 A297 RMK A01 T02200015  RH  026%=      5-min Rain = 0
KSW1 182143Z 25019G24KT 22/02 A297 RMK A01 T02200017  RH  026%=      5-min Rain = 0
KSW1 182144Z 25021KT 22/02 A297 RMK A01 T02200015  RH  026%=      5-min Rain = 0
KSW1 182145Z 25019KT 22/02 A297 RMK A01 T02200015  RH  026%=      5-min Rain = 0
KSW1 182146Z 25021G27KT 22/02 A297 RMK A01 T02200015  RH  026%=      5-min Rain = 0
KSW1 182147Z 25022KT 22/01 A297 RMK A01 T02200014  RH  026%=      5-min Rain = 0
KSW1 182148Z 25021G27KT 22/01 A297 RMK A01 T02200014  RH  026%=      5-min Rain = 0
KSW1 182149Z 25017G23KT 22/01 A297 RMK A01 T02210014  RH  025%=      5-min Rain = 0
KSW1 182150Z 24018G25KT 22/02 A297 RMK A01 T02220018  RH  026%=      5-min Rain = 0
KSW1 182151Z 24020G28KT 22/01 A297 RMK A01 T02230013  RH  025%=      5-min Rain = 0
KSW1 182152Z 25016KT 22/02 A297 RMK A01 T02230016  RH  025%=      5-min Rain = 0
KSW1 182153Z 24020G25KT 22/02 A297 RMK A01 T02240015  RH  025%=      5-min Rain = 0
KSW1 182154Z 24022KT 22/01 A297 RMK A01 T02230013  RH  025%=      5-min Rain = 0
KSW1 182155Z 25022G28KT 22/01 A297 RMK A01 T02220012  RH  025%=      5-min Rain = 0
KSW1 182156Z 25021KT 22/01 A297 RMK A01 T02200012  RH  025%=      5-min Rain = 0
KSW1 182157Z 25018KT 22/01 A297 RMK A01 T02190013  RH  026%=      5-min Rain = 0
KSW1 182158Z 26020G25KT 22/01 A297 RMK A01 T02190014  RH  026%=      5-min Rain = 0
KSW1 182159Z 25019G26KT 22/01 A297 RMK A01 T02200013  RH  025%=      5-min Rain = 0
KSW1 182200Z 26023KT 22/01 A297 RMK A01 T02200012  RH  025%=      5-min Rain = 0
KSW1 182201Z 26021G26KT 22/01 A297 RMK A01 T02200011  RH  025%=      5-min Rain = 0
KSW1 182202Z 25021G26KT 22/01 A297 RMK A01 T02190013  RH  026%=      5-min Rain = 0
KSW1 182203Z 25021G29KT 22/02 A297 RMK A01 T02180015  RH  026%=      5-min Rain = 0
KSW1 182204Z 25019G25KT 22/01 A297 RMK A01 T02180014  RH  026%=      5-min Rain = 0
KSW1 182205Z 26025G30KT 22/01 A297 RMK A01 T02160012  RH  026%=      5-min Rain = 0
KSW1 182206Z 26021G27KT 22/01 A297 RMK A01 T02160011  RH  026%=      5-min Rain = 0
KSW1 182207Z 25017G22KT 22/01 A297 RMK A01 T02150012  RH  026%=      5-min Rain = 0
KSW1 182208Z 25017G22KT 22/02 A297 RMK A01 T02150015  RH  027%=      5-min Rain = 0
KSW1 182209Z 26017KT 22/02 A297 RMK A01 T02150015  RH  027%=      5-min Rain = 0
KSW1 182210Z 26016KT 22/02 A297 RMK A01 T02150016  RH  027%=      5-min Rain = 0
KSW1 182211Z 26019KT 22/01 A297 RMK A01 T02150013  RH  026%=      5-min Rain = 0
KSW1 182212Z 25015G20KT 22/02 A2971 RMK A01 T02160017  RH  027%=      5-min Rain = 0
KSW1 182213Z 25014G19KT 22/02 A297 RMK A01 T02160019  RH  027%=      5-min Rain = 0
KSW1 182214Z 25016KT 22/02 A297 RMK A01 T02160019  RH  027%=      5-min Rain = 0
KSW1 182215Z 26016G21KT 22/02 A297 RMK A01 T02170019  RH  027%=      5-min Rain = 0
KSW1 182216Z 26018G24KT 22/02 A297 RMK A01 T02190015  RH  026%=      5-min Rain = 0
KSW1 182217Z 25018KT 22/02 A297 RMK A01 T02200016  RH  026%=      5-min Rain = 0
KSW1 182218Z 25018G23KT 22/02 A297 RMK A01 T02200015  RH  026%=      5-min Rain = 0
KSW1 182219Z 26015KT 22/02 A297 RMK A01 T02190017  RH  026%=      5-min Rain = 0
KSW1 182220Z 26015KT 22/02 A297 RMK A01 T02180018  RH  027%=      5-min Rain = 0
KSW1 182221Z 26021G28KT 22/02 A297 RMK A01 T02180016  RH  026%=      5-min Rain = 0
KSW1 182222Z 26022G27KT 22/01 A297 RMK A01 T02170013  RH  026%=      5-min Rain = 0
KSW1 182223Z 27020KT 22/01 A297 RMK A01 T02150011  RH  026%=      5-min Rain = 0
KSW1 182224Z 27019KT 21/01 A297 RMK A01 T02140012  RH  026%=      5-min Rain = 0
KSW1 182225Z 27021G26KT 21/01 A297 RMK A01 T02130012  RH  026%=      5-min Rain = 0
KSW1 182226Z 27019KT 21/01 A297 RMK A01 T02130011  RH  026%=      5-min Rain = 0
KSW1 182227Z 26017G24KT 21/01 A297 RMK A01 T02120012  RH  027%=      5-min Rain = 0
KSW1 182228Z 27014G21KT 21/01 A297 RMK A01 T02120014  RH  027%=      5-min Rain = 0
KSW1 182229Z 27019KT 21/01 A297 RMK A01 T02110013  RH  027%=      5-min Rain = 0
KSW1 182230Z 27017KT 21/01 A297 RMK A01 T02110012  RH  027%=      5-min Rain = 0
KSW1 182231Z 27019G25KT 21/01 A297 RMK A01 T02110012  RH  027%=      5-min Rain = 0
KSW1 182232Z 27017G22KT 21/01 A297 RMK A01 T02110012  RH  027%=      5-min Rain = 0
KSW1 182233Z 27017KT 21/01 A297 RMK A01 T02100012  RH  027%=      5-min Rain = 0
KSW1 182234Z 27018KT 21/01 A2971 RMK A01 T02100012  RH  027%=      5-min Rain = 0
KSW1 182235Z 27015KT 21/01 A2971 RMK A01 T02100012  RH  027%=      5-min Rain = 0
KSW1 182236Z 26012KT 21/01 A2971 RMK A01 T02090014  RH  027%=      5-min Rain = 0
KSW1 182237Z 26015G22KT 21/01 A2971 RMK A01 T02090014  RH  028%=      5-min Rain = 0
KSW1 182238Z 26015G21KT 21/01 A2971 RMK A01 T02080011  RH  027%=      5-min Rain = 0
KSW1 182239Z 27015KT 21/01 A2971 RMK A01 T02080013  RH  027%=      5-min Rain = 0
KSW1 182240Z 26016KT 21/01 A2971 RMK A01 T02080014  RH  027%=      5-min Rain = 0
KSW1 182241Z 26015KT 21/01 A2971 RMK A01 T02080013  RH  027%=      5-min Rain = 0
KSW1 182242Z 26014G19KT 21/01 A2971 RMK A01 T02070013  RH  027%=      5-min Rain = 0
KSW1 182243Z 26015KT 21/01 A2971 RMK A01 T02070013  RH  027%=      5-min Rain = 0
KSW1 182244Z 26012KT 21/01 A2971 RMK A01 T02070013  RH  028%=      5-min Rain = 0
KSW1 182245Z 26014KT 21/02 A2971 RMK A01 T02070015  RH  028%=      5-min Rain = 0
KSW1 182246Z 27015KT 21/01 A2971 RMK A01 T02060014  RH  028%=      5-min Rain = 0
KSW1 182247Z 27014KT 21/01 A2971 RMK A01 T02060013  RH  028%=      5-min Rain = 0
KSW1 182248Z 27013KT 21/01 A2971 RMK A01 T02060014  RH  028%=      5-min Rain = 0
KSW1 182249Z 27012KT 21/01 A2971 RMK A01 T02060014  RH  028%=      5-min Rain = 0
KSW1 182250Z 27012G17KT 21/02 A2971 RMK A01 T02050015  RH  028%=      5-min Rain = 0
KSW1 182251Z 27014KT 20/01 A2971 RMK A01 T02040014  RH  028%=      5-min Rain = 0
KSW1 182252Z 27013KT 20/01 A2971 RMK A01 T02040014  RH  028%=      5-min Rain = 0
KSW1 182253Z 27012G18KT 21/02 A2971 RMK A01 T02050015  RH  028%=      5-min Rain = 0
KSW1 182254Z 27013KT 20/02 A2971 RMK A01 T02040015  RH  029%=      5-min Rain = 0
KSW1 182255Z 27012KT 20/02 A2971 RMK A01 T02030015  RH  029%=      5-min Rain = 0
KSW1 182256Z 26012KT 20/02 A2971 RMK A01 T02030015  RH  029%=      5-min Rain = 0
KSW1 182257Z 27012KT 20/02 A2971 RMK A01 T02030015  RH  029%=      5-min Rain = 0
KSW1 182258Z 27011KT 20/02 A2971 RMK A01 T02020015  RH  029%=      5-min Rain = 0
KSW1 182259Z 27011KT 20/02 A2971 RMK A01 T02010016  RH  029%=      5-min Rain = 0
KSW1 182300Z 27013KT 20/01 A2971 RMK A01 T02010014  RH  029%=      5-min Rain = 0
KSW1 182301Z 27013G18KT 20/01 A2971 RMK A01 T02010014  RH  029%=      5-min Rain = 0
KSW1 182302Z 26013G19KT 20/01 A2971 RMK A01 T02010014  RH  029%=      5-min Rain = 0
KSW1 182303Z 27016KT 20/01 A2971 RMK A01 T02010012  RH  028%=      5-min Rain = 0
KSW1 182304Z 27014KT 20/01 A2971 RMK A01 T02010012  RH  028%=      5-min Rain = 0
KSW1 182305Z 26012G17KT 20/01 A2971 RMK A01 T02010012  RH  028%=      5-min Rain = 0
KSW1 182306Z 26013G19KT 20/01 A2971 RMK A01 T02010013  RH  029%=      5-min Rain = 0
KSW1 182307Z 27012KT 20/01 A2971 RMK A01 T02010012  RH  028%=      5-min Rain = 0
KSW1 182308Z 27013KT 20/01 A2971 RMK A01 T02010011  RH  028%=      5-min Rain = 0
KSW1 182309Z 27012KT 20/01 A2971 RMK A01 T02000012  RH  029%=      5-min Rain = 0
KSW1 182310Z 26012KT 20/01 A2971 RMK A01 T02000012  RH  029%=      5-min Rain = 0
KSW1 182311Z 27011KT 20/01 A2971 RMK A01 T02000013  RH  029%=      5-min Rain = 0
KSW1 182312Z 27010KT 20/01 A2971 RMK A01 T01990012  RH  029%=      5-min Rain = 0
KSW1 182313Z 27013G18KT 20/01 A2971 RMK A01 T02000012  RH  029%=      5-min Rain = 0
KSW1 182314Z 27011KT 20/01 A2971 RMK A01 T02000012  RH  028%=      5-min Rain = 0
KSW1 182315Z 27013KT 20/01 A2971 RMK A01 T02000012  RH  028%=      5-min Rain = 0
KSW1 182316Z 27011G18KT 20/01 A2971 RMK A01 T02000011  RH  028%=      5-min Rain = 0
KSW1 182317Z 27010KT 20/01 A2971 RMK A01 T02000011  RH  028%=      5-min Rain = 0
KSW1 182318Z 27010KT 20/01 A2971 RMK A01 T02000011  RH  028%=      5-min Rain = 0
KSW1 182319Z 26013KT 20/01 A2971 RMK A01 T01990010  RH  028%=      5-min Rain = 0
KSW1 182320Z 26013KT 20/01 A2971 RMK A01 T01990008  RH  028%=      5-min Rain = 0
KSW1 182321Z 26011G16KT 20/01 A2971 RMK A01 T02000010  RH  028%=      5-min Rain = 0
KSW1 182322Z 27013KT 20/01 A2971 RMK A01 T02000009  RH  028%=      5-min Rain = 0
KSW1 182323Z 27012KT 20/01 A2971 RMK A01 T02000008  RH  028%=      5-min Rain = 0
KSW1 182324Z 27012KT 20/01 A2971 RMK A01 T02000008  RH  028%=      5-min Rain = 0
KSW1 182325Z 27011KT 20/01 A2971 RMK A01 T02000009  RH  028%=      5-min Rain = 0
KSW1 182326Z 27013KT 20/01 A2971 RMK A01 T01990009  RH  028%=      5-min Rain = 0
KSW1 182327Z 26012KT 20/01 A2971 RMK A01 T01990008  RH  028%=      5-min Rain = 0
KSW1 182328Z 26011KT 20/01 A2971 RMK A01 T01980007  RH  028%=      5-min Rain = 0
KSW1 182329Z 26011KT 20/01 A2971 RMK A01 T01980010  RH  028%=      5-min Rain = 0
KSW1 182330Z 26010KT 20/01 A2971 RMK A01 T01970010  RH  029%=      5-min Rain = 0
KSW1 182331Z 26011KT 20/01 A297 RMK A01 T01970009  RH  029%=      5-min Rain = 0
KSW1 182332Z 26012KT 20/01 A297 RMK A01 T01960008  RH  028%=      5-min Rain = 0
KSW1 182333Z 26011KT 20/01 A2971 RMK A01 T01970007  RH  028%=      5-min Rain = 0
KSW1 182334Z 26011KT 20/01 A2971 RMK A01 T01970009  RH  028%=      5-min Rain = 0
KSW1 182335Z 26010KT 20/01 A2971 RMK A01 T01960009  RH  029%=      5-min Rain = 0
KSW1 182336Z 27011KT 20/01 A2971 RMK A01 T01960009  RH  029%=      5-min Rain = 0
KSW1 182337Z 27010KT 20/01 A297 RMK A01 T01950007  RH  028%=      5-min Rain = 0
KSW1 182338Z 27010KT 20/01 A297 RMK A01 T01950008  RH  028%=      5-min Rain = 0
KSW1 182339Z 26010KT 20/01 A297 RMK A01 T01950008  RH  029%=      5-min Rain = 0
KSW1 182340Z 27010KT 20/01 A297 RMK A01 T01950008  RH  029%=      5-min Rain = 0
KSW1 182341Z 27010KT 20/01 A2971 RMK A01 T01950008  RH  029%=      5-min Rain = 0
KSW1 182342Z 26009KT 19/01 A2971 RMK A01 T01940009  RH  029%=      5-min Rain = 0
KSW1 182343Z 27012KT 19/01 A2971 RMK A01 T01940008  RH  029%=      5-min Rain = 0
KSW1 182344Z 26010KT 19/01 A2971 RMK A01 T01940009  RH  029%=      5-min Rain = 0
KSW1 182345Z 26011KT 19/01 A2971 RMK A01 T01930009  RH  029%=      5-min Rain = 0
KSW1 182346Z 26010KT 19/01 A2971 RMK A01 T01920008  RH  029%=      5-min Rain = 0
KSW1 182347Z 26011KT 19/01 A2971 RMK A01 T01920009  RH  029%=      5-min Rain = 0
KSW1 182348Z 26013KT 19/01 A2971 RMK A01 T01920006  RH  029%=      5-min Rain = 0
KSW1 182349Z 27011KT 19/01 A2971 RMK A01 T01930007  RH  029%=      5-min Rain = 0
KSW1 182350Z 27012KT 19/01 A2971 RMK A01 T01930008  RH  029%=      5-min Rain = 0
KSW1 182351Z 26012G17KT 19/01 A2971 RMK A01 T01930007  RH  029%=      5-min Rain = 0
KSW1 182352Z 27013KT 19/01 A2971 RMK A01 T01930006  RH  029%=      5-min Rain = 0
KSW1 182353Z 26011KT 19/01 A2971 RMK A01 T01930007  RH  029%=      5-min Rain = 0
KSW1 182354Z 26014KT 19/01 A2971 RMK A01 T01940007  RH  029%=      5-min Rain = 0
KSW1 182355Z 26012KT 19/01 A2971 RMK A01 T01940005  RH  028%=      5-min Rain = 0
KSW1 182356Z 26012G17KT 19/01 A2971 RMK A01 T01940006  RH  028%=      5-min Rain = 0
KSW1 182357Z 26012KT 19/01 A2971 RMK A01 T01940006  RH  028%=      5-min Rain = 0
KSW1 182358Z 27011KT 19/01 A2971 RMK A01 T01940007  RH  029%=      5-min Rain = 0
KSW1 182359Z 26010G15KT 19/01 A2971 RMK A01 T01940007  RH  029%=      5-min Rain = 0
KSW1 190000Z 27010KT 19/01 A2971 RMK A01 T01930007  RH  029%=      5-min Rain = 0
KSW1 190001Z 27014KT 19/01 A2971 RMK A01 T01920007  RH  029%=      5-min Rain = 0
KSW1 190002Z 27014G22KT 19/01 A2971 RMK A01 T01920007  RH  029%=      5-min Rain = 0
KSW1 190003Z 27015KT 19/01 A2971 RMK A01 T01930009  RH  029%=      5-min Rain = 0
KSW1 190004Z 27017G24KT 19/01 A2971 RMK A01 T01920009  RH  029%=      5-min Rain = 0
KSW1 190005Z 28017KT 19/01 A2972 RMK A01 T01920011  RH  030%=      5-min Rain = 0
KSW1 190006Z 28014KT 19/01 A2972 RMK A01 T01910012  RH  030%=      5-min Rain = 0
KSW1 190007Z 28014KT 19/01 A2972 RMK A01 T01900014  RH  031%=      5-min Rain = 0
KSW1 190008Z 28014KT 19/01 A2972 RMK A01 T01890014  RH  031%=      5-min Rain = 0
KSW1 190009Z 29015G20KT 19/02 A2972 RMK A01 T01890016  RH  031%=      5-min Rain = 0
KSW1 190010Z 29014KT 19/02 A2972 RMK A01 T01880017  RH  032%=      5-min Rain = 0
KSW1 190011Z 28018KT 19/02 A2972 RMK A01 T01880018  RH  032%=      5-min Rain = 0
KSW1 190012Z 28019KT 19/02 A2972 RMK A01 T01870019  RH  032%=      5-min Rain = 0
KSW1 190013Z 28018G27KT 19/02 A2972 RMK A01 T01870021  RH  033%=      5-min Rain = 0
KSW1 190014Z 28022G27KT 19/02 A2972 RMK A01 T01860021  RH  033%=      5-min Rain = 0
KSW1 190015Z 28019G26KT 19/02 A2972 RMK A01 T01860021  RH  033%=      5-min Rain = 0
KSW1 190016Z 28020G27KT 19/02 A2972 RMK A01 T01860022  RH  033%=      5-min Rain = 0
KSW1 190017Z 29021KT 19/02 A2973 RMK A01 T01850023  RH  034%=      5-min Rain = 0
KSW1 190018Z 28023G31KT 18/02 A2973 RMK A01 T01840023  RH  034%=      5-min Rain = 0
KSW1 190019Z 28023G29KT 18/02 A2973 RMK A01 T01840023  RH  034%=      5-min Rain = 0
KSW1 190020Z 29018G24KT 18/02 A2973 RMK A01 T01830023  RH  034%=      5-min Rain = 0
KSW1 190021Z 28020KT 18/02 A2973 RMK A01 T01830024  RH  035%=      5-min Rain = 0
KSW1 190022Z 28020G28KT 18/02 A2973 RMK A01 T01820024  RH  035%=      5-min Rain = 0
KSW1 190023Z 28020KT 18/02 A2973 RMK A01 T01810024  RH  035%=      5-min Rain = 0
KSW1 190024Z 28022KT 18/02 A2973 RMK A01 T01810024  RH  035%=      5-min Rain = 0
KSW1 190025Z 28017KT 18/03 A2973 RMK A01 T01800025  RH  035%=      5-min Rain = 0
KSW1 190026Z 29020G25KT 18/02 A2973 RMK A01 T01790024  RH  035%=      5-min Rain = 0
KSW1 190027Z 28021G28KT 18/02 A2974 RMK A01 T01790024  RH  035%=      5-min Rain = 0
KSW1 190028Z 29018G23KT 18/02 A2974 RMK A01 T01790024  RH  036%=      5-min Rain = 0
KSW1 190029Z 29017KT 18/03 A2974 RMK A01 T01780025  RH  036%=      5-min Rain = 0
KSW1 190030Z 29017KT 18/03 A2974 RMK A01 T01780026  RH  036%=      5-min Rain = 0
KSW1 190031Z 29015KT 18/03 A2975 RMK A01 T01770026  RH  036%=      5-min Rain = 0
KSW1 190032Z 28017G29KT 18/03 A2975 RMK A01 T01760027  RH  037%=      5-min Rain = 0
KSW1 190033Z 28024KT 18/02 A2974 RMK A01 T01760023  RH  036%=      5-min Rain = 0
KSW1 190034Z 29023KT 18/02 A2975 RMK A01 T01770021  RH  035%=      5-min Rain = 0
KSW1 190035Z 29021G27KT 18/02 A2975 RMK A01 T01780021  RH  035%=      5-min Rain = 0
KSW1 190036Z 28019KT 18/02 A2975 RMK A01 T01770022  RH  035%=      5-min Rain = 0
KSW1 190037Z 29021KT 18/02 A2975 RMK A01 T01770021  RH  035%=      5-min Rain = 0
KSW1 190038Z 28020KT 18/02 A2975 RMK A01 T01760020  RH  035%=      5-min Rain = 0
KSW1 190039Z 28014KT 18/02 A2975 RMK A01 T01760022  RH  036%=      5-min Rain = 0
KSW1 190040Z 28016G24KT 18/02 A2975 RMK A01 T01750022  RH  036%=      5-min Rain = 0
KSW1 190041Z 28020G25KT 17/02 A2975 RMK A01 T01740020  RH  036%=      5-min Rain = 0
KSW1 190042Z 28018G23KT 17/02 A2975 RMK A01 T01740021  RH  036%=      5-min Rain = 0
KSW1 190043Z 28018KT 17/02 A2975 RMK A01 T01740021  RH  036%=      5-min Rain = 0
KSW1 190044Z 28024G29KT 17/02 A2975 RMK A01 T01730018  RH  035%=      5-min Rain = 0
KSW1 190045Z 28022G27KT 17/02 A2975 RMK A01 T01730016  RH  035%=      5-min Rain = 0
KSW1 190046Z 28020KT 17/02 A2975 RMK A01 T01730016  RH  035%=      5-min Rain = 0
KSW1 190047Z 28017KT 17/02 A2975 RMK A01 T01720017  RH  035%=      5-min Rain = 0
KSW1 190048Z 28022G29KT 17/02 A2976 RMK A01 T01720016  RH  035%=      5-min Rain = 0
KSW1 190049Z 28024G30KT 17/01 A2975 RMK A01 T01710013  RH  034%=      5-min Rain = 0
KSW1 190050Z 28025KT 17/01 A2975 RMK A01 T01710010  RH  034%=      5-min Rain = 0
KSW1 190051Z 28027G32KT 17/01 A2976 RMK A01 T01710009  RH  033%=      5-min Rain = 0
KSW1 190052Z 29028G37KT 17/01 A2976 RMK A01 T01700009  RH  034%=      5-min Rain = 0
KSW1 190053Z 29023G31KT 17/01 A2976 RMK A01 T01690012  RH  035%=      5-min Rain = 0
KSW1 190054Z 29031KT 17/01 A2977 RMK A01 T01670014  RH  035%=      5-min Rain = 0
KSW1 190055Z 29028G36KT 17/02 A2977 RMK A01 T01660015  RH  036%=      5-min Rain = 0
KSW1 190056Z 29022G28KT 17/02 A2977 RMK A01 T01650016  RH  037%=      5-min Rain = 0
KSW1 190057Z 29025G32KT 16/02 A2978 RMK A01 T01640017  RH  037%=      5-min Rain = 0
KSW1 190058Z 29024G31KT 16/02 A2978 RMK A01 T01630019  RH  038%=      5-min Rain = 0
KSW1 190059Z 29022KT 16/02 A2978 RMK A01 T01610019  RH  038%=      5-min Rain = 0
KSW1 190100Z 29024KT 16/02 A2978 RMK A01 T01600023  RH  040%=      5-min Rain = 0
KSW1 190101Z 30023G28KT 16/03 A2978 RMK A01 T01580027  RH  041%=      5-min Rain = 0
KSW1 190102Z 29017KT 16/03 A2978 RMK A01 T01560028  RH  042%=      5-min Rain = 0
KSW1 190103Z 30020KT 15/03 A2978 RMK A01 T01540028  RH  043%=      5-min Rain = 0
KSW1 190104Z 29018KT 15/03 A2978 RMK A01 T01530029  RH  043%=      5-min Rain = 0
KSW1 190105Z 30016G21KT 15/03 A2978 RMK A01 T01520031  RH  044%=      5-min Rain = 0
KSW1 190106Z 29019KT 15/03 A2978 RMK A01 T01510032  RH  045%=      5-min Rain = 0
KSW1 190107Z 29017KT 15/03 A2979 RMK A01 T01500033  RH  046%=      5-min Rain = 0
KSW1 190108Z 29020KT 15/03 A2979 RMK A01 T01490033  RH  046%=      5-min Rain = 0
KSW1 190109Z 30018KT 15/04 A2979 RMK A01 T01490035  RH  046%=      5-min Rain = 0
KSW1 190110Z 29021G28KT 15/04 A2979 RMK A01 T01480035  RH  047%=      5-min Rain = 0
KSW1 190111Z 29020G26KT 15/03 A2978 RMK A01 T01470032  RH  046%=      5-min Rain = 0
KSW1 190112Z 29021G28KT 15/03 A2979 RMK A01 T01480033  RH  046%=      5-min Rain = 0
KSW1 190113Z 29018KT 15/03 A2979 RMK A01 T01480032  RH  046%=      5-min Rain = 0
KSW1 190114Z 30021G26KT 15/03 A2979 RMK A01 T01480030  RH  045%=      5-min Rain = 0
KSW1 190115Z 29022G30KT 15/03 A2979 RMK A01 T01480026  RH  044%=      5-min Rain = 0
KSW1 190116Z 30028KT 15/02 A2979 RMK A01 T01480018  RH  041%=      5-min Rain = 0
KSW1 190117Z 29025G30KT 15/02 A2979 RMK A01 T01480015  RH  041%=      5-min Rain = 0
KSW1 190118Z 30022G28KT 15/02 A2979 RMK A01 T01480015  RH  040%=      5-min Rain = 0
KSW1 190119Z 30026G31KT 15/01 A2978 RMK A01 T01480013  RH  040%=      5-min Rain = 0
KSW1 190120Z 30020KT 15/01 A2979 RMK A01 T01480013  RH  040%=      5-min Rain = 0
KSW1 190121Z 30021G29KT 15/01 A2979 RMK A01 T01470014  RH  040%=      5-min Rain = 0
KSW1 190122Z 31021G28KT 15/01 A2979 RMK A01 T01470012  RH  040%=      5-min Rain = 0
KSW1 190123Z 30019G25KT 15/01 A2979 RMK A01 T01470014  RH  040%=      5-min Rain = 0
KSW1 190124Z 30018KT 15/01 A2979 RMK A01 T01460014  RH  040%=      5-min Rain = 0
KSW1 190125Z 30018KT 15/01 A2979 RMK A01 T01460014  RH  041%=      5-min Rain = 0
KSW1 190126Z 30017KT 15/01 A2979 RMK A01 T01460014  RH  041%=      5-min Rain = 0
KSW1 190127Z 30019G24KT 15/01 A2979 RMK A01 T01460013  RH  041%=      5-min Rain = 0
KSW1 190128Z 29018G23KT 15/01 A2979 RMK A01 T01460013  RH  040%=      5-min Rain = 0
KSW1 190129Z 29016KT 15/01 A2979 RMK A01 T01460013  RH  040%=      5-min Rain = 0
KSW1 190130Z 29017KT 15/01 A298 RMK A01 T01460013  RH  040%=      5-min Rain = 0
KSW1 190131Z 29018KT 15/01 A298 RMK A01 T01460013  RH  040%=      5-min Rain = 0
KSW1 190132Z 29017G25KT 15/01 A298 RMK A01 T01460013  RH  040%=      5-min Rain = 0
KSW1 190133Z 28018G24KT 15/02 A2981 RMK A01 T01470017  RH  042%=      5-min Rain = 0
KSW1 190134Z 29019G24KT 15/02 A2981 RMK A01 T01460019  RH  042%=      5-min Rain = 0
KSW1 190135Z 28021G30KT 15/02 A2981 RMK A01 T01450018  RH  042%=      5-min Rain = 0
KSW1 190136Z 28021G28KT 14/02 A298 RMK A01 T01440019  RH  043%=      5-min Rain = 0
KSW1 190137Z 27022G31KT 14/02 A298 RMK A01 T01410024  RH  045%=      5-min Rain = 0
KSW1 190138Z 27018KT 14/02 A298 RMK A01 T01390020  RH  044%=      5-min Rain = 0
KSW1 190139Z 28014KT 14/02 A298 RMK A01 T01390020  RH  045%=      5-min Rain = 0
KSW1 190140Z 28016KT 14/02 A298 RMK A01 T01380017  RH  044%=      5-min Rain = 0
KSW1 190141Z 27019G25KT 14/01 A2979 RMK A01 T01390008  RH  041%=      5-min Rain = 0
KSW1 190142Z 28022KT 14/00 A2979 RMK A01 T01430001  RH  038%=      5-min Rain = 0
KSW1 190143Z 27019G26KT 15/00 A2979 RMK A01 T01450002  RH  038%=      5-min Rain = 0
KSW1 190144Z 27019G26KT 14/01 A2978 RMK A01 T01440007  RH  039%=      5-min Rain = 0
KSW1 190145Z 26016G24KT 14/01 A2978 RMK A01 T01420010  RH  041%=      5-min Rain = 0
KSW1 190146Z 27020KT 14/02 A2977 RMK A01 T01400015  RH  043%=      5-min Rain = 0
KSW1 190147Z 27021KT 14/00 A2977 RMK A01 T01400002  RH  039%=      5-min Rain = 0
KSW1 190148Z 26018G23KT 14/00 A2978 RMK A01 T01430003  RH  038%=      5-min Rain = 0
KSW1 190149Z 24018KT 14/01 A2978 RMK A01 T01420010  RH  041%=      5-min Rain = 0
KSW1 190150Z 25017KT 14/01 A2978 RMK A01 T01400010  RH  041%=      5-min Rain = 0
KSW1 190151Z 25014KT 14/01 A2978 RMK A01 T01390013  RH  042%=      5-min Rain = 0
KSW1 190152Z 25014KT 14/01 A2978 RMK A01 T01380014  RH  043%=      5-min Rain = 0
KSW1 190153Z 25014G19KT 14/02 A2978 RMK A01 T01370015  RH  043%=      5-min Rain = 0
KSW1 190154Z 25012KT 14/02 A2978 RMK A01 T01370016  RH  044%=      5-min Rain = 0
KSW1 190155Z 25012KT 14/02 A2978 RMK A01 T01360016  RH  044%=      5-min Rain = 0
KSW1 190156Z 25013KT 14/01 A2978 RMK A01 T01350014  RH  044%=      5-min Rain = 0
KSW1 190157Z 25010KT 14/01 A2978 RMK A01 T01350014  RH  044%=      5-min Rain = 0
KSW1 190158Z 26012KT 14/02 A2978 RMK A01 T01350016  RH  044%=      5-min Rain = 0
KSW1 190159Z 25012KT 14/02 A2978 RMK A01 T01350015  RH  044%=      5-min Rain = 0
KSW1 190200Z 26012KT 14/02 A2979 RMK A01 T01350015  RH  044%=      5-min Rain = 0
KSW1 190201Z 25012KT 14/01 A2979 RMK A01 T01350014  RH  044%=      5-min Rain = 0
KSW1 190202Z 26012KT 14/02 A2979 RMK A01 T01350015  RH  044%=      5-min Rain = 0
KSW1 190203Z 25012KT 14/01 A2979 RMK A01 T01350013  RH  044%=      5-min Rain = 0
KSW1 190204Z 25014KT 14/01 A298 RMK A01 T01350012  RH  043%=      5-min Rain = 0
KSW1 190205Z 25014KT 14/01 A298 RMK A01 T01360012  RH  043%=      5-min Rain = 0
KSW1 190206Z 25016KT 14/01 A298 RMK A01 T01360011  RH  043%=      5-min Rain = 0
KSW1 190207Z 25020KT 14/00 A298 RMK A01 T01360002  RH  040%=      5-min Rain = 0
KSW1 190208Z 24015KT 14/00 A298 RMK A01 T01400001  RH  039%=      5-min Rain = 0
KSW1 190209Z 25014KT 14/01 A298 RMK A01 T01400008  RH  041%=      5-min Rain = 0
KSW1 190210Z 24014KT 14/01 A298 RMK A01 T01380008  RH  041%=      5-min Rain = 0
KSW1 190211Z 25015G23KT 14/00 A298 RMK A01 T01370004  RH  040%=      5-min Rain = 0
KSW1 190212Z 25017G26KT 14/00 A298 RMK A01 T013900-0  RH  038%=      5-min Rain = 0
KSW1 190213Z 25021G26KT 14/M01 A2981 RMK A01 T01411008  RH  036%=      5-min Rain = 0
KSW1 190214Z 26021KT 14/M01 A2981 RMK A01 T01441011  RH  034%=      5-min Rain = 0
KSW1 190215Z 26017KT 15/M01 A2981 RMK A01 T01461012  RH  034%=      5-min Rain = 0
KSW1 190216Z 26017KT 15/M02 A2981 RMK A01 T01461015  RH  033%=      5-min Rain = 0
KSW1 190217Z 26018G24KT 15/M02 A298 RMK A01 T01471018  RH  032%=      5-min Rain = 0
KSW1 190218Z 26020G26KT 15/M02 A298 RMK A01 T01481021  RH  031%=      5-min Rain = 0
KSW1 190219Z 26017KT 15/M02 A298 RMK A01 T01491021  RH  031%=      5-min Rain = 0
KSW1 190220Z 25018G25KT 15/M02 A2979 RMK A01 T01491020  RH  031%=      5-min Rain = 0
KSW1 190221Z 26018G26KT 15/M02 A2979 RMK A01 T01491024  RH  030%=      5-min Rain = 0
KSW1 190222Z 26019KT 15/M02 A298 RMK A01 T01501022  RH  031%=      5-min Rain = 0
KSW1 190223Z 25017G22KT 15/M02 A298 RMK A01 T01501021  RH  031%=      5-min Rain = 0
KSW1 190224Z 25016KT 15/M02 A298 RMK A01 T01501018  RH  031%=      5-min Rain = 0
KSW1 190225Z 25016KT 15/M02 A298 RMK A01 T01481016  RH  032%=      5-min Rain = 0
KSW1 190226Z 25019G24KT 15/M02 A298 RMK A01 T01471017  RH  032%=      5-min Rain = 0
KSW1 190227Z 26020G26KT 15/M02 A298 RMK A01 T01481018  RH  032%=      5-min Rain = 0
KSW1 190228Z 26019G24KT 15/M02 A298 RMK A01 T01481020  RH  031%=      5-min Rain = 0
KSW1 190229Z 26021G29KT 15/M02 A298 RMK A01 T01481020  RH  031%=      5-min Rain = 0
KSW1 190230Z 26019G25KT 15/M02 A298 RMK A01 T01491022  RH  031%=      5-min Rain = 0
KSW1 190231Z 26016G21KT 15/M02 A298 RMK A01 T01491019  RH  031%=      5-min Rain = 0
KSW1 190232Z 26015G20KT 15/M02 A2979 RMK A01 T01481018  RH  032%=      5-min Rain = 0
KSW1 190233Z 25017KT 15/M02 A2979 RMK A01 T01471018  RH  032%=      5-min Rain = 0
KSW1 190234Z 26016G21KT 15/M02 A2979 RMK A01 T01471019  RH  032%=      5-min Rain = 0
KSW1 190235Z 26016KT 15/M02 A2979 RMK A01 T01471019  RH  032%=      5-min Rain = 0
KSW1 190236Z 25015KT 15/M02 A2979 RMK A01 T01461020  RH  032%=      5-min Rain = 0
KSW1 190237Z 26016KT 15/M02 A2979 RMK A01 T01461019  RH  032%=      5-min Rain = 0
KSW1 190238Z 26015KT 15/M02 A2978 RMK A01 T01461020  RH  032%=      5-min Rain = 0
KSW1 190239Z 26015G21KT 15/M02 A2979 RMK A01 T01461019  RH  032%=      5-min Rain = 0
KSW1 190240Z 26015G20KT 15/M02 A2979 RMK A01 T01461020  RH  032%=      5-min Rain = 0
KSW1 190241Z 26015KT 15/M02 A2979 RMK A01 T01461019  RH  032%=      5-min Rain = 0
KSW1 190242Z 25017KT 15/M02 A2979 RMK A01 T01461020  RH  032%=      5-min Rain = 0
KSW1 190243Z 26015KT 15/M02 A2979 RMK A01 T01461019  RH  032%=      5-min Rain = 0
KSW1 190244Z 26014KT 15/M02 A2979 RMK A01 T01451019  RH  032%=      5-min Rain = 0
KSW1 190245Z 26014KT 15/M02 A2979 RMK A01 T01451019  RH  032%=      5-min Rain = 0
KSW1 190246Z 26015G20KT 14/M02 A2979 RMK A01 T01441021  RH  032%=      5-min Rain = 0
KSW1 190247Z 26015KT 14/M02 A2979 RMK A01 T01441020  RH  032%=      5-min Rain = 0
KSW1 190248Z 26014G20KT 14/M02 A2979 RMK A01 T01431019  RH  033%=      5-min Rain = 0
KSW1 190249Z 26017KT 14/M02 A2979 RMK A01 T01421021  RH  032%=      5-min Rain = 0
KSW1 190250Z 26018KT 14/M02 A2979 RMK A01 T01421022  RH  032%=      5-min Rain = 0
KSW1 190251Z 26018G25KT 14/M02 A2979 RMK A01 T01421024  RH  032%=      5-min Rain = 0
KSW1 190252Z 26021G27KT 14/M03 A2979 RMK A01 T01431031  RH  030%=      5-min Rain = 0
KSW1 190253Z 26019KT 15/M03 A2979 RMK A01 T01451034  RH  029%=      5-min Rain = 0
KSW1 190254Z 27019G24KT 15/M03 A2979 RMK A01 T01461031  RH  029%=      5-min Rain = 0
KSW1 190255Z 27018G25KT 15/M03 A2979 RMK A01 T01461032  RH  029%=      5-min Rain = 0
KSW1 190256Z 26016KT 15/M03 A298 RMK A01 T01461031  RH  029%=      5-min Rain = 0
KSW1 190257Z 26019G24KT 15/M03 A298 RMK A01 T01451031  RH  029%=      5-min Rain = 0
KSW1 190258Z 26020G26KT 15/M04 A298 RMK A01 T01451037  RH  028%=      5-min Rain = 0
KSW1 190259Z 27021G27KT 15/M04 A298 RMK A01 T01461037  RH  028%=      5-min Rain = 0
KSW1 190300Z 27021G27KT 15/M04 A298 RMK A01 T01471041  RH  027%=      5-min Rain = 0
KSW1 190301Z 27020G26KT 15/M04 A298 RMK A01 T01481040  RH  027%=      5-min Rain = 0
KSW1 190302Z 27021KT 15/M04 A298 RMK A01 T01481039  RH  027%=      5-min Rain = 0
KSW1 190303Z 27021G26KT 15/M04 A298 RMK A01 T01481039  RH  027%=      5-min Rain = 0
KSW1 190304Z 27019G27KT 15/M04 A298 RMK A01 T01471040  RH  027%=      5-min Rain = 0
KSW1 190305Z 27024KT 15/M04 A298 RMK A01 T01471041  RH  027%=      5-min Rain = 0
KSW1 190306Z 27020G26KT 15/M04 A298 RMK A01 T01481042  RH  027%=      5-min Rain = 0
KSW1 190307Z 27024G31KT 15/M04 A298 RMK A01 T01481040  RH  027%=      5-min Rain = 0
KSW1 190308Z 27026G32KT 15/M04 A298 RMK A01 T01471043  RH  027%=      5-min Rain = 0
KSW1 190309Z 27022G28KT 15/M04 A298 RMK A01 T01481042  RH  027%=      5-min Rain = 0
KSW1 190310Z 27024G30KT 15/M04 A298 RMK A01 T01481042  RH  027%=      5-min Rain = 0
KSW1 190311Z 27026G33KT 15/M04 A298 RMK A01 T01481042  RH  027%=      5-min Rain = 0
KSW1 190312Z 28028G36KT 15/M04 A298 RMK A01 T01481042  RH  027%=      5-min Rain = 0
KSW1 190313Z 28022G28KT 15/M04 A298 RMK A01 T01481040  RH  027%=      5-min Rain = 0
KSW1 190314Z 28024G30KT 15/M04 A298 RMK A01 T01471039  RH  027%=      5-min Rain = 0
KSW1 190315Z 28027G33KT 15/M04 A298 RMK A01 T01461037  RH  028%=      5-min Rain = 0
KSW1 190316Z 29023G30KT 15/M03 A2981 RMK A01 T01461032  RH  029%=      5-min Rain = 0
KSW1 190317Z 30027G37KT 14/M03 A2981 RMK A01 T01441029  RH  030%=      5-min Rain = 0
KSW1 190318Z 29035G43KT 14/M02 A2981 RMK A01 T01411017  RH  033%=      5-min Rain = 0
KSW1 190319Z 29034G43KT 14/M01 A2981 RMK A01 T01391014  RH  035%=      5-min Rain = 0
KSW1 190320Z 29035G41KT 14/M01 A2981 RMK A01 T01361009  RH  037%=      5-min Rain = 0
KSW1 190321Z 29026G34KT 13/M01 A2981 RMK A01 T01331006  RH  038%=      5-min Rain = 0
KSW1 190322Z 30031G38KT 13/M01 A2981 RMK A01 T01301005  RH  040%=      5-min Rain = 0
KSW1 190323Z 29028G37KT 13/M00 A2981 RMK A01 T01281003  RH  041%=      5-min Rain = 0
KSW1 190324Z 30032G38KT 13/M00 A2982 RMK A01 T01261002  RH  041%=      5-min Rain = 0
KSW1 190325Z 30032G45KT 12/M00 A2982 RMK A01 T01241001  RH  042%=      5-min Rain = 0
KSW1 190326Z 30033G40KT 12/00 A2982 RMK A01 T01200000  RH  044%=      5-min Rain = 0
KSW1 190327Z 30029KT 12/00 A2982 RMK A01 T01170001  RH  045%=      5-min Rain = 0
KSW1 190328Z 30029G39KT 12/00 A2982 RMK A01 T01150002  RH  046%=      5-min Rain = 0
KSW1 190329Z 30032G38KT 11/00 A2982 RMK A01 T01130002  RH  046%=      5-min Rain = 0
KSW1 190330Z 31031G37KT 11/00 A2982 RMK A01 T01110002  RH  047%=      5-min Rain = 0
KSW1 190331Z 30027G33KT 11/00 A2983 RMK A01 T01100003  RH  047%=      5-min Rain = 0
KSW1 190332Z 31027G33KT 11/00 A2983 RMK A01 T01090003  RH  048%=      5-min Rain = 0
KSW1 190333Z 30024G30KT 11/00 A2983 RMK A01 T01080003  RH  048%=      5-min Rain = 0
KSW1 190334Z 31027KT 11/00 A2983 RMK A01 T01070003  RH  049%=      5-min Rain = 0
KSW1 190335Z 31024G31KT 11/00 A2983 RMK A01 T01050003  RH  049%=      5-min Rain = 0
KSW1 190336Z 31023G29KT 10/00 A2983 RMK A01 T01040003  RH  049%=      5-min Rain = 0
KSW1 190337Z 31020G25KT 10/00 A2983 RMK A01 T01030003  RH  050%=      5-min Rain = 0
KSW1 190338Z 31024G29KT 10/00 A2983 RMK A01 T01030003  RH  050%=      5-min Rain = 0
KSW1 190339Z 31023G29KT 10/00 A2983 RMK A01 T01020003  RH  050%=      5-min Rain = 0
KSW1 190340Z 31027G32KT 10/00 A2983 RMK A01 T01000003  RH  051%=      5-min Rain = 0
KSW1 190341Z 31025G34KT 10/00 A2983 RMK A01 T00990003  RH  051%=      5-min Rain = 0
KSW1 190342Z 31026G35KT 10/00 A2983 RMK A01 T00970003  RH  052%=      5-min Rain = 0
KSW1 190343Z 31026KT 10/00 A2983 RMK A01 T00960003  RH  052%=      5-min Rain = 0
KSW1 190344Z 31025KT 10/00 A2983 RMK A01 T00950003  RH  053%=      5-min Rain = 0
KSW1 190345Z 31022KT 09/00 A2984 RMK A01 T00940003  RH  053%=      5-min Rain = 0
KSW1 190346Z 31023G34KT 09/00 A2983 RMK A01 T00930003  RH  053%=      5-min Rain = 0
KSW1 190347Z 31017G24KT 09/00 A2984 RMK A01 T00920003  RH  054%=      5-min Rain = 0
KSW1 190348Z 31022G28KT 09/00 A2984 RMK A01 T00910003  RH  054%=      5-min Rain = 0
KSW1 190349Z 31018KT 09/00 A2984 RMK A01 T00900003  RH  055%=      5-min Rain = 0
KSW1 190350Z 31020KT 09/00 A2984 RMK A01 T00890004  RH  055%=      5-min Rain = 0
KSW1 190351Z 31020KT 09/00 A2984 RMK A01 T00890004  RH  055%=      5-min Rain = 0
KSW1 190352Z 31020KT 09/00 A2984 RMK A01 T00890004  RH  055%=      5-min Rain = 0
KSW1 190353Z 31018KT 09/00 A2984 RMK A01 T00880004  RH  055%=      5-min Rain = 0
KSW1 190354Z 31018G25KT 09/00 A2984 RMK A01 T00880004  RH  056%=      5-min Rain = 0
KSW1 190355Z 31024G29KT 09/00 A2984 RMK A01 T00870003  RH  056%=      5-min Rain = 0
KSW1 190356Z 31022G27KT 09/00 A2984 RMK A01 T00860002  RH  056%=      5-min Rain = 0
KSW1 190357Z 31024G32KT 09/00 A2984 RMK A01 T00860002  RH  056%=      5-min Rain = 0
KSW1 190358Z 31020G26KT 09/00 A2984 RMK A01 T00850002  RH  056%=      5-min Rain = 0
KSW1 190359Z 31018KT 08/00 A2985 RMK A01 T00840002  RH  056%=      5-min Rain = 0
KSW1 190400Z 31023G31KT 08/00 A2985 RMK A01 T00840002  RH  056%=      5-min Rain = 0
KSW1 190401Z 31025G31KT 08/00 A2985 RMK A01 T00830002  RH  056%=      5-min Rain = 0
KSW1 190402Z 31021G27KT 08/00 A2985 RMK A01 T00830002  RH  057%=      5-min Rain = 0
KSW1 190403Z 31021G28KT 08/00 A2985 RMK A01 T00820001  RH  057%=      5-min Rain = 0
KSW1 190404Z 31022G28KT 08/00 A2986 RMK A01 T00820001  RH  057%=      5-min Rain = 0
KSW1 190405Z 31020G25KT 08/00 A2986 RMK A01 T00810001  RH  057%=      5-min Rain = 0
KSW1 190406Z 31024G32KT 08/00 A2986 RMK A01 T00800001  RH  057%=      5-min Rain = 0
KSW1 190407Z 31025G31KT 08/00 A2987 RMK A01 T007900-0  RH  057%=      5-min Rain = 0
KSW1 190408Z 31021G31KT 08/00 A2987 RMK A01 T007900-0  RH  057%=      5-min Rain = 0
KSW1 190409Z 31022G29KT 08/M00 A2987 RMK A01 T00781001  RH  057%=      5-min Rain = 0
KSW1 190410Z 31020G25KT 08/M00 A2987 RMK A01 T00781001  RH  058%=      5-min Rain = 0
KSW1 190411Z 31021KT 08/M00 A2987 RMK A01 T00771001  RH  058%=      5-min Rain = 0
KSW1 190412Z 31022G32KT 08/M00 A2987 RMK A01 T00761001  RH  058%=      5-min Rain = 0
KSW1 190413Z 31023G29KT 08/M00 A2988 RMK A01 T00751001  RH  058%=      5-min Rain = 0
KSW1 190414Z 31024G32KT 08/M00 A2988 RMK A01 T00751001  RH  059%=      5-min Rain = 0
KSW1 190415Z 31021G26KT 07/M00 A2988 RMK A01 T00741001  RH  059%=      5-min Rain = 0
KSW1 190416Z 31023G31KT 07/M00 A2988 RMK A01 T00731001  RH  059%=      5-min Rain = 0
KSW1 190417Z 31021G29KT 07/M00 A2989 RMK A01 T00721001  RH  059%=      5-min Rain = 0
KSW1 190418Z 30023G30KT 07/M00 A2989 RMK A01 T00721001  RH  060%=      5-min Rain = 0
KSW1 190419Z 30023G30KT 07/M00 A2989 RMK A01 T00711002  RH  060%=      5-min Rain = 0
KSW1 190420Z 31027KT 07/M00 A2989 RMK A01 T00701002  RH  060%=      5-min Rain = 0
KSW1 190421Z 30024G32KT 07/M00 A299 RMK A01 T00701002  RH  060%=      5-min Rain = 0
KSW1 190422Z 30023KT 07/M00 A299 RMK A01 T00691002  RH  060%=      5-min Rain = 0
KSW1 190423Z 30022G27KT 07/M00 A299 RMK A01 T00691002  RH  061%=      5-min Rain = 0
KSW1 190424Z 31024G29KT 07/M00 A299 RMK A01 T00681002  RH  061%=      5-min Rain = 0
KSW1 190425Z 31022G29KT 07/M00 A299 RMK A01 T00681002  RH  061%=      5-min Rain = 0
KSW1 190426Z 32022KT 07/M00 A299 RMK A01 T00681002  RH  061%=      5-min Rain = 0
KSW1 190427Z 31020G28KT 07/M00 A2991 RMK A01 T00671002  RH  061%=      5-min Rain = 0
KSW1 190428Z 32024G29KT 07/M00 A2991 RMK A01 T00661002  RH  062%=      5-min Rain = 0
KSW1 190429Z 32024G31KT 07/M00 A2991 RMK A01 T00661002  RH  062%=      5-min Rain = 0
KSW1 190430Z 31023G29KT 07/M00 A2991 RMK A01 T00651003  RH  062%=      5-min Rain = 0
KSW1 190431Z 32030G35KT 06/M00 A2991 RMK A01 T00641003  RH  062%=      5-min Rain = 0
KSW1 190432Z 32025G31KT 06/M00 A2991 RMK A01 T00641003  RH  062%=      5-min Rain = 0
KSW1 190433Z 32026G32KT 06/M00 A2991 RMK A01 T00641003  RH  062%=      5-min Rain = 0
KSW1 190434Z 31023G32KT 06/M00 A2991 RMK A01 T00631003  RH  063%=      5-min Rain = 0
KSW1 190435Z 31025G31KT 06/M00 A2991 RMK A01 T00631003  RH  063%=      5-min Rain = 0
KSW1 190436Z 32026G35KT 06/M00 A2992 RMK A01 T00621003  RH  063%=      5-min Rain = 0
KSW1 190437Z 31024G29KT 06/M00 A2992 RMK A01 T00621004  RH  063%=      5-min Rain = 0
KSW1 190438Z 31023KT 06/M00 A2992 RMK A01 T00621003  RH  063%=      5-min Rain = 0
KSW1 190439Z 32025G31KT 06/M00 A2992 RMK A01 T00611003  RH  063%=      5-min Rain = 0
KSW1 190440Z 31022G29KT 06/M00 A2992 RMK A01 T00611003  RH  063%=      5-min Rain = 0
KSW1 190441Z 31022KT 06/M00 A2992 RMK A01 T00611004  RH  063%=      5-min Rain = 0
KSW1 190442Z 32020KT 06/M00 A2992 RMK A01 T00601003  RH  064%=      5-min Rain = 0
KSW1 190443Z 32023KT 06/M00 A2992 RMK A01 T00601004  RH  064%=      5-min Rain = 0
KSW1 190444Z 32019KT 06/M00 A2993 RMK A01 T00601004  RH  064%=      5-min Rain = 0
KSW1 190445Z 32020G25KT 06/M00 A2993 RMK A01 T00591003  RH  064%=      5-min Rain = 0
KSW1 190446Z 32020G26KT 06/M00 A2993 RMK A01 T00591004  RH  064%=      5-min Rain = 0
KSW1 190447Z 32020KT 06/M00 A2993 RMK A01 T00591004  RH  064%=      5-min Rain = 0
KSW1 190448Z 32020G25KT 06/M00 A2993 RMK A01 T00591003  RH  064%=      5-min Rain = 0
KSW1 190449Z 32020G25KT 06/M00 A2993 RMK A01 T00581003  RH  064%=      5-min Rain = 0
KSW1 190450Z 32022G27KT 06/M00 A2993 RMK A01 T00581003  RH  065%=      5-min Rain = 0
KSW1 190451Z 32022G30KT 06/M00 A2993 RMK A01 T00591003  RH  064%=      5-min Rain = 0
KSW1 190452Z 32021KT 06/M00 A2993 RMK A01 T00591004  RH  064%=      5-min Rain = 0
KSW1 190453Z 32020G29KT 06/M00 A2993 RMK A01 T00591003  RH  064%=      5-min Rain = 0
KSW1 190454Z 32021G28KT 06/M00 A2993 RMK A01 T00591003  RH  064%=      5-min Rain = 0
KSW1 190455Z 32019KT 06/M00 A2993 RMK A01 T00591003  RH  064%=      5-min Rain = 0
KSW1 190456Z 32019G24KT 06/M00 A2993 RMK A01 T00591003  RH  064%=      5-min Rain = 0
KSW1 190457Z 32018KT 06/M00 A2993 RMK A01 T00591003  RH  064%=      5-min Rain = 0
KSW1 190458Z 32019KT 06/M00 A2994 RMK A01 T00591003  RH  064%=      5-min Rain = 0
KSW1 190459Z 32016G21KT 06/M00 A2994 RMK A01 T00591003  RH  065%=      5-min Rain = 0
KSW1 190500Z 32020KT 06/M00 A2994 RMK A01 T00591002  RH  065%=      5-min Rain = 0
KSW1 190501Z 33019KT 06/M00 A2994 RMK A01 T00591003  RH  065%=      5-min Rain = 0
KSW1 190502Z 33019G24KT 06/M00 A2994 RMK A01 T00591003  RH  065%=      5-min Rain = 0
KSW1 190503Z 33016G21KT 06/M00 A2994 RMK A01 T00591002  RH  065%=      5-min Rain = 0
KSW1 190504Z 33017KT 06/M00 A2994 RMK A01 T00591003  RH  065%=      5-min Rain = 0
KSW1 190505Z 32015KT 06/M00 A2994 RMK A01 T00581003  RH  065%=      5-min Rain = 0
KSW1 190506Z 33018G23KT 06/M00 A2994 RMK A01 T00581003  RH  065%=      5-min Rain = 0
KSW1 190507Z 32020KT 06/M00 A2994 RMK A01 T00571003  RH  065%=      5-min Rain = 0
KSW1 190508Z 32015KT 06/M00 A2995 RMK A01 T00571004  RH  065%=      5-min Rain = 0
KSW1 190509Z 33016G21KT 06/M00 A2995 RMK A01 T00561003  RH  065%=      5-min Rain = 0
KSW1 190510Z 32016G22KT 06/M00 A2995 RMK A01 T00561003  RH  066%=      5-min Rain = 0
KSW1 190511Z 32018G24KT 06/M00 A2995 RMK A01 T00551003  RH  066%=      5-min Rain = 0
KSW1 190512Z 33018KT 06/M00 A2995 RMK A01 T00561003  RH  066%=      5-min Rain = 0
KSW1 190513Z 33015KT 06/M00 A2995 RMK A01 T00561003  RH  066%=      5-min Rain = 0
KSW1 190514Z 33014G19KT 06/M00 A2995 RMK A01 T00561002  RH  066%=      5-min Rain = 0
KSW1 190515Z 32015KT 06/M00 A2995 RMK A01 T00561002  RH  066%=      5-min Rain = 0
KSW1 190516Z 33015KT 06/M00 A2995 RMK A01 T00571002  RH  066%=      5-min Rain = 0
KSW1 190517Z 33017G23KT 06/M00 A2995 RMK A01 T00571002  RH  066%=      5-min Rain = 0
KSW1 190518Z 33020G25KT 06/M00 A2995 RMK A01 T00571004  RH  065%=      5-min Rain = 0
KSW1 190519Z 33019KT 06/M00 A2995 RMK A01 T00571004  RH  065%=      5-min Rain = 0
KSW1 190520Z 33020KT 06/M00 A2996 RMK A01 T00571004  RH  065%=      5-min Rain = 0
KSW1 190521Z 33015G21KT 06/M00 A2996 RMK A01 T00571003  RH  065%=      5-min Rain = 0
KSW1 190522Z 32021G26KT 06/M00 A2996 RMK A01 T00571003  RH  065%=      5-min Rain = 0
KSW1 190523Z 33022G27KT 06/M00 A2996 RMK A01 T00571004  RH  065%=      5-min Rain = 0
KSW1 190524Z 33018KT 06/M00 A2996 RMK A01 T00571004  RH  065%=      5-min Rain = 0
KSW1 190525Z 32020G29KT 06/M01 A2996 RMK A01 T00561005  RH  065%=      5-min Rain = 0
KSW1 190526Z 33021G26KT 06/M01 A2996 RMK A01 T00561006  RH  064%=      5-min Rain = 0
KSW1 190527Z 32023KT 06/M01 A2996 RMK A01 T00561006  RH  064%=      5-min Rain = 0
KSW1 190528Z 32018G23KT 06/M01 A2997 RMK A01 T00561006  RH  064%=      5-min Rain = 0
KSW1 190529Z 32019G24KT 06/M01 A2997 RMK A01 T00561006  RH  064%=      5-min Rain = 0
KSW1 190530Z 32024KT 06/M01 A2997 RMK A01 T00561008  RH  064%=      5-min Rain = 0
KSW1 190531Z 32021G26KT 06/M01 A2997 RMK A01 T00561008  RH  063%=      5-min Rain = 0
KSW1 190532Z 32020G27KT 06/M01 A2997 RMK A01 T00561008  RH  063%=      5-min Rain = 0
KSW1 190533Z 32018G23KT 06/M01 A2997 RMK A01 T00551008  RH  063%=      5-min Rain = 0
KSW1 190534Z 32020KT 06/M01 A2997 RMK A01 T00551009  RH  063%=      5-min Rain = 0
KSW1 190535Z 32021G28KT 06/M01 A2997 RMK A01 T00551009  RH  063%=      5-min Rain = 0
KSW1 190536Z 32017G22KT 06/M01 A2998 RMK A01 T00551009  RH  064%=      5-min Rain = 0
KSW1 190537Z 32019KT 06/M01 A2998 RMK A01 T00551008  RH  064%=      5-min Rain = 0
KSW1 190538Z 32021G30KT 06/M01 A2998 RMK A01 T00551008  RH  064%=      5-min Rain = 0
KSW1 190539Z 32021G27KT 05/M01 A2998 RMK A01 T00541009  RH  063%=      5-min Rain = 0
KSW1 190540Z 32022KT 05/M01 A2998 RMK A01 T00541009  RH  064%=      5-min Rain = 0
KSW1 190541Z 32022G27KT 05/M01 A2998 RMK A01 T00541010  RH  063%=      5-min Rain = 0
KSW1 190542Z 32020KT 05/M01 A2998 RMK A01 T00541009  RH  064%=      5-min Rain = 0
KSW1 190543Z 32018G23KT 05/M01 A2999 RMK A01 T00541009  RH  064%=      5-min Rain = 0
KSW1 190544Z 32022KT 05/M01 A2999 RMK A01 T00541009  RH  064%=      5-min Rain = 0
KSW1 190545Z 32019G25KT 05/M01 A2999 RMK A01 T00531010  RH  064%=      5-min Rain = 0
KSW1 190546Z 32021KT 05/M01 A2999 RMK A01 T00531009  RH  064%=      5-min Rain = 0
KSW1 190547Z 33016G21KT 05/M01 A2999 RMK A01 T00531009  RH  064%=      5-min Rain = 0
KSW1 190548Z 32018KT 05/M01 A2999 RMK A01 T00531009  RH  064%=      5-min Rain = 0
KSW1 190549Z 32022KT 05/M01 A2999 RMK A01 T00531010  RH  064%=      5-min Rain = 0
KSW1 190550Z 32021G26KT 05/M01 A2999 RMK A01 T00531011  RH  063%=      5-min Rain = 0
KSW1 190551Z 33024KT 05/M01 A2999 RMK A01 T00531011  RH  064%=      5-min Rain = 0
KSW1 190552Z 33021G26KT 05/M01 A2999 RMK A01 T00521011  RH  064%=      5-min Rain = 0
KSW1 190553Z 32020G26KT 05/M01 A2999 RMK A01 T00521011  RH  064%=      5-min Rain = 0
KSW1 190554Z 32020KT 05/M01 A2999 RMK A01 T00521011  RH  064%=      5-min Rain = 0
KSW1 190555Z 32019KT 05/M01 A2999 RMK A01 T00521010  RH  064%=      5-min Rain = 0
KSW1 190556Z 32019G24KT 05/M01 A30 RMK A01 T00521010  RH  064%=      5-min Rain = 0
KSW1 190557Z 32018KT 05/M01 A2999 RMK A01 T00521010  RH  064%=      5-min Rain = 0
KSW1 190558Z 32018KT 05/M01 A30 RMK A01 T00521010  RH  064%=      5-min Rain = 0
KSW1 190559Z 32021KT 05/M01 A2999 RMK A01 T00521010  RH  064%=      5-min Rain = 0

Page generated in 0.0796 seconds.